Observation data for Earth on 07/12/2020      Previous  Date  Next       Current Mesonet Observations  Soil Data  Daily Summary Page  Observations in Plain Language
KEA1 120500Z 03019KT 31/10 A3009 RMK A01 T03110101  RH  027%=      5-min Rain = 0
KEA1 120501Z 03016KT 31/10 A3009 RMK A01 T03110101  RH  027%=      5-min Rain = 0
KEA1 120502Z 03014KT 31/10 A3009 RMK A01 T03100101  RH  027%=      5-min Rain = 0
KEA1 120503Z 02014KT 31/10 A3009 RMK A01 T03080101  RH  028%=      5-min Rain = 0
KEA1 120504Z 03014KT 31/10 A3009 RMK A01 T03080101  RH  028%=      5-min Rain = 0
KEA1 120505Z 02011KT 31/10 A3009 RMK A01 T03080101  RH  028%=      5-min Rain = 0
KEA1 120506Z 02011KT 31/10 A301 RMK A01 T03070101  RH  028%=      5-min Rain = 0
KEA1 120507Z 02011KT 31/10 A301 RMK A01 T03060101  RH  028%=      5-min Rain = 0
KEA1 120508Z 02010KT 31/10 A301 RMK A01 T03050101  RH  028%=      5-min Rain = 0
KEA1 120509Z 02009KT 30/10 A301 RMK A01 T03040102  RH  029%=      5-min Rain = 0
KEA1 120510Z 03010KT 30/10 A301 RMK A01 T03020101  RH  029%=      5-min Rain = 0
KEA1 120511Z 03013KT 30/10 A301 RMK A01 T03010101  RH  029%=      5-min Rain = 0
KEA1 120512Z 02012KT 30/10 A301 RMK A01 T03010101  RH  029%=      5-min Rain = 0
KEA1 120513Z 02011KT 30/10 A301 RMK A01 T03020102  RH  029%=      5-min Rain = 0
KEA1 120514Z 03011KT 30/10 A301 RMK A01 T03010101  RH  029%=      5-min Rain = 0
KEA1 120515Z 03012KT 30/10 A301 RMK A01 T03000101  RH  029%=      5-min Rain = 0
KEA1 120516Z 03011G16KT 30/10 A301 RMK A01 T03000101  RH  029%=      5-min Rain = 0
KEA1 120517Z 04012KT 30/10 A301 RMK A01 T03000101  RH  029%=      5-min Rain = 0
KEA1 120518Z 04011KT 30/10 A301 RMK A01 T03000101  RH  029%=      5-min Rain = 0
KEA1 120519Z 04009KT 30/10 A301 RMK A01 T03000102  RH  029%=      5-min Rain = 0
KEA1 120520Z 03010KT 30/10 A301 RMK A01 T02990102  RH  029%=      5-min Rain = 0
KEA1 120521Z 03010KT 30/10 A301 RMK A01 T02990102  RH  030%=      5-min Rain = 0
KEA1 120522Z 03008KT 30/10 A301 RMK A01 T02980103  RH  030%=      5-min Rain = 0
KEA1 120523Z 03009KT 30/10 A301 RMK A01 T02960102  RH  030%=      5-min Rain = 0
KEA1 120524Z 02010KT 30/10 A301 RMK A01 T02960103  RH  030%=      5-min Rain = 0
KEA1 120525Z 03009KT 30/10 A301 RMK A01 T02950102  RH  030%=      5-min Rain = 0
KEA1 120526Z 03008G13KT 30/10 A301 RMK A01 T02950103  RH  030%=      5-min Rain = 0
KEA1 120527Z 03011KT 29/10 A301 RMK A01 T02940102  RH  030%=      5-min Rain = 0
KEA1 120528Z 03013KT 29/10 A301 RMK A01 T02940102  RH  030%=      5-min Rain = 0
KEA1 120529Z 04014KT 29/10 A301 RMK A01 T02940102  RH  030%=      5-min Rain = 0
KEA1 120530Z 04016KT 30/10 A301 RMK A01 T02960102  RH  030%=      5-min Rain = 0
KEA1 120531Z 04016KT 30/10 A301 RMK A01 T02980102  RH  030%=      5-min Rain = 0
KEA1 120532Z 04015KT 30/10 A301 RMK A01 T02990102  RH  029%=      5-min Rain = 0
KEA1 120533Z 05012KT 30/10 A301 RMK A01 T02990101  RH  029%=      5-min Rain = 0
KEA1 120534Z 05012KT 30/10 A301 RMK A01 T02990102  RH  029%=      5-min Rain = 0
KEA1 120535Z 05012KT 30/10 A3011 RMK A01 T02980102  RH  030%=      5-min Rain = 0
KEA1 120536Z 05012KT 30/10 A3011 RMK A01 T02960102  RH  030%=      5-min Rain = 0
KEA1 120537Z 04011KT 30/10 A301 RMK A01 T02950102  RH  030%=      5-min Rain = 0
KEA1 120538Z 04013KT 29/10 A301 RMK A01 T02940102  RH  030%=      5-min Rain = 0
KEA1 120539Z 05014KT 29/10 A301 RMK A01 T02930102  RH  030%=      5-min Rain = 0
KEA1 120540Z 05015KT 29/10 A301 RMK A01 T02940102  RH  030%=      5-min Rain = 0
KEA1 120541Z 05014KT 30/10 A301 RMK A01 T02960102  RH  030%=      5-min Rain = 0
KEA1 120542Z 05012KT 30/10 A3011 RMK A01 T02960102  RH  030%=      5-min Rain = 0
KEA1 120543Z 05012KT 30/10 A3011 RMK A01 T02970102  RH  030%=      5-min Rain = 0
KEA1 120544Z 05010KT 30/10 A3011 RMK A01 T02960102  RH  030%=      5-min Rain = 0
KEA1 120545Z 05010KT 29/10 A3011 RMK A01 T02940102  RH  030%=      5-min Rain = 0
KEA1 120546Z 05010KT 29/10 A3011 RMK A01 T02930102  RH  031%=      5-min Rain = 0
KEA1 120547Z 05010KT 29/10 A3011 RMK A01 T02930103  RH  031%=      5-min Rain = 0
KEA1 120548Z 05010KT 29/10 A3011 RMK A01 T02920102  RH  031%=      5-min Rain = 0
KEA1 120549Z 05010KT 29/10 A3011 RMK A01 T02920102  RH  031%=      5-min Rain = 0
KEA1 120550Z 06010KT 29/10 A3011 RMK A01 T02920103  RH  031%=      5-min Rain = 0
KEA1 120551Z 05010KT 29/10 A3011 RMK A01 T02910103  RH  031%=      5-min Rain = 0
KEA1 120552Z 06009KT 29/10 A3011 RMK A01 T02910103  RH  031%=      5-min Rain = 0
KEA1 120553Z 05009KT 29/10 A3011 RMK A01 T02900103  RH  031%=      5-min Rain = 0
KEA1 120554Z 05008KT 29/10 A3011 RMK A01 T02900103  RH  031%=      5-min Rain = 0
KEA1 120555Z 05010KT 29/10 A3011 RMK A01 T02900103  RH  031%=      5-min Rain = 0
KEA1 120556Z 05012KT 29/10 A3011 RMK A01 T02900103  RH  031%=      5-min Rain = 0
KEA1 120557Z 05012KT 29/10 A3011 RMK A01 T02890102  RH  031%=      5-min Rain = 0
KEA1 120558Z 05012KT 29/10 A3011 RMK A01 T02900103  RH  031%=      5-min Rain = 0
KEA1 120559Z 05011KT 29/10 A3011 RMK A01 T02910102  RH  031%=      5-min Rain = 0
KEA1 120600Z 05012KT 29/10 A3011 RMK A01 T02920102  RH  031%=      5-min Rain = 0
KEA1 120601Z 05012KT 29/10 A3011 RMK A01 T02920103  RH  031%=      5-min Rain = 0
KEA1 120602Z 05011KT 29/10 A3011 RMK A01 T02920103  RH  031%=      5-min Rain = 0
KEA1 120603Z 05012KT 29/10 A3011 RMK A01 T02910102  RH  031%=      5-min Rain = 0
KEA1 120604Z 05013KT 29/10 A3011 RMK A01 T02900102  RH  031%=      5-min Rain = 0
KEA1 120605Z 05014KT 29/10 A3011 RMK A01 T02910102  RH  031%=      5-min Rain = 0
KEA1 120606Z 04013KT 29/10 A3011 RMK A01 T02910102  RH  031%=      5-min Rain = 0
KEA1 120607Z 04014KT 29/10 A3011 RMK A01 T02910103  RH  031%=      5-min Rain = 0
KEA1 120608Z 04015G20KT 29/10 A3011 RMK A01 T02910102  RH  031%=      5-min Rain = 0
KEA1 120609Z 04015KT 29/10 A3011 RMK A01 T02910102  RH  031%=      5-min Rain = 0
KEA1 120610Z 04014KT 29/10 A3011 RMK A01 T02920102  RH  031%=      5-min Rain = 0
KEA1 120611Z 04013KT 29/10 A3011 RMK A01 T02910102  RH  031%=      5-min Rain = 0
KEA1 120612Z 03013KT 29/10 A3011 RMK A01 T02910102  RH  031%=      5-min Rain = 0
KEA1 120613Z 04012KT 29/10 A3011 RMK A01 T02910102  RH  031%=      5-min Rain = 0
KEA1 120614Z 04012KT 29/10 A3011 RMK A01 T02900102  RH  031%=      5-min Rain = 0
KEA1 120615Z 05011KT 29/10 A3011 RMK A01 T02880103  RH  031%=      5-min Rain = 0
KEA1 120616Z 05010KT 29/10 A3011 RMK A01 T02880103  RH  032%=      5-min Rain = 0
KEA1 120617Z 05011KT 29/10 A3011 RMK A01 T02860103  RH  032%=      5-min Rain = 0
KEA1 120618Z 05012KT 29/10 A3011 RMK A01 T02860103  RH  032%=      5-min Rain = 0
KEA1 120619Z 05013KT 29/10 A3011 RMK A01 T02870103  RH  032%=      5-min Rain = 0
KEA1 120620Z 05009KT 29/10 A3011 RMK A01 T02880103  RH  032%=      5-min Rain = 0
KEA1 120621Z 06008KT 29/10 A3011 RMK A01 T02890103  RH  031%=      5-min Rain = 0
KEA1 120622Z 06008KT 29/10 A3011 RMK A01 T02890103  RH  032%=      5-min Rain = 0
KEA1 120623Z 06006KT 29/10 A3011 RMK A01 T02880103  RH  032%=      5-min Rain = 0
KEA1 120624Z 07007KT 29/10 A3011 RMK A01 T02870103  RH  032%=      5-min Rain = 0
KEA1 120625Z 06007KT 29/10 A3011 RMK A01 T02850104  RH  032%=      5-min Rain = 0
KEA1 120626Z 07007KT 29/10 A3011 RMK A01 T02850104  RH  032%=      5-min Rain = 0
KEA1 120627Z 07007KT 28/10 A3011 RMK A01 T02840104  RH  033%=      5-min Rain = 0
KEA1 120628Z 08006KT 28/11 A301 RMK A01 T02840105  RH  033%=      5-min Rain = 0
KEA1 120629Z 09005KT 28/10 A3011 RMK A01 T02840104  RH  033%=      5-min Rain = 0
KEA1 120630Z 09004KT 28/10 A301 RMK A01 T02840104  RH  033%=      5-min Rain = 0
KEA1 120631Z 08006KT 28/11 A301 RMK A01 T02840105  RH  033%=      5-min Rain = 0
KEA1 120632Z 07007KT 28/11 A301 RMK A01 T02840105  RH  033%=      5-min Rain = 0
KEA1 120633Z 06010KT 28/11 A301 RMK A01 T02840105  RH  033%=      5-min Rain = 0
KEA1 120634Z 06011KT 28/11 A301 RMK A01 T02830105  RH  033%=      5-min Rain = 0
KEA1 120635Z 07010KT 28/11 A301 RMK A01 T02840105  RH  033%=      5-min Rain = 0
KEA1 120636Z 08008KT 29/11 A301 RMK A01 T02860105  RH  032%=      5-min Rain = 0
KEA1 120637Z 08008KT 29/11 A301 RMK A01 T02860106  RH  033%=      5-min Rain = 0
KEA1 120638Z 07009KT 29/11 A301 RMK A01 T02850106  RH  033%=      5-min Rain = 0
KEA1 120639Z 08009KT 28/11 A301 RMK A01 T02840105  RH  033%=      5-min Rain = 0
KEA1 120640Z 09007KT 28/11 A301 RMK A01 T02840106  RH  033%=      5-min Rain = 0
KEA1 120641Z 09008KT 28/11 A301 RMK A01 T02830106  RH  033%=      5-min Rain = 0
KEA1 120642Z 09007KT 28/11 A301 RMK A01 T02840106  RH  033%=      5-min Rain = 0
KEA1 120643Z 09007KT 28/11 A301 RMK A01 T02840106  RH  033%=      5-min Rain = 0
KEA1 120644Z 09009KT 28/11 A301 RMK A01 T02840106  RH  033%=      5-min Rain = 0
KEA1 120645Z 08010KT 28/11 A3009 RMK A01 T02840105  RH  033%=      5-min Rain = 0
KEA1 120646Z 08010KT 29/11 A3009 RMK A01 T02860105  RH  032%=      5-min Rain = 0
KEA1 120647Z 07012KT 29/11 A3009 RMK A01 T02880105  RH  032%=      5-min Rain = 0
KEA1 120648Z 07014KT 29/11 A3009 RMK A01 T02880105  RH  032%=      5-min Rain = 0
KEA1 120649Z 08012KT 29/11 A3009 RMK A01 T02890105  RH  032%=      5-min Rain = 0
KEA1 120650Z 08011KT 29/11 A301 RMK A01 T02890105  RH  032%=      5-min Rain = 0
KEA1 120651Z 08009KT 29/11 A301 RMK A01 T02890105  RH  032%=      5-min Rain = 0
KEA1 120652Z 09008KT 29/11 A301 RMK A01 T02890105  RH  032%=      5-min Rain = 0
KEA1 120653Z 09007KT 29/11 A301 RMK A01 T02890105  RH  032%=      5-min Rain = 0
KEA1 120654Z 09009KT 29/10 A3009 RMK A01 T02890104  RH  032%=      5-min Rain = 0
KEA1 120655Z 08008KT 29/10 A3009 RMK A01 T02900104  RH  031%=      5-min Rain = 0
KEA1 120656Z 09006KT 29/10 A3009 RMK A01 T02900103  RH  031%=      5-min Rain = 0
KEA1 120657Z 10007KT 29/10 A301 RMK A01 T02900103  RH  031%=      5-min Rain = 0
KEA1 120658Z 10007KT 29/10 A301 RMK A01 T02900104  RH  031%=      5-min Rain = 0
KEA1 120659Z 10007KT 29/11 A301 RMK A01 T02890105  RH  032%=      5-min Rain = 0
KEA1 120700Z 10008KT 29/11 A3009 RMK A01 T02890105  RH  032%=      5-min Rain = 0
KEA1 120701Z 10008KT 29/11 A3009 RMK A01 T02880105  RH  032%=      5-min Rain = 0
KEA1 120702Z 10008KT 29/11 A301 RMK A01 T02870105  RH  032%=      5-min Rain = 0
KEA1 120703Z 10009KT 29/11 A301 RMK A01 T02870105  RH  032%=      5-min Rain = 0
KEA1 120704Z 11009KT 29/11 A3009 RMK A01 T02870105  RH  032%=      5-min Rain = 0
KEA1 120705Z 11011KT 29/11 A3009 RMK A01 T02870105  RH  032%=      5-min Rain = 0
KEA1 120706Z 11011KT 29/11 A3009 RMK A01 T02870105  RH  032%=      5-min Rain = 0
KEA1 120707Z 11012KT 29/11 A3009 RMK A01 T02870105  RH  032%=      5-min Rain = 0
KEA1 120708Z 11011KT 29/11 A3009 RMK A01 T02870105  RH  032%=      5-min Rain = 0
KEA1 120709Z 11009KT 29/11 A3009 RMK A01 T02870105  RH  032%=      5-min Rain = 0
KEA1 120710Z 11012KT 29/10 A3009 RMK A01 T02870104  RH  032%=      5-min Rain = 0
KEA1 120711Z 12010KT 29/10 A3009 RMK A01 T02880104  RH  032%=      5-min Rain = 0
KEA1 120712Z 12010KT 29/11 A3009 RMK A01 T02880105  RH  032%=      5-min Rain = 0
KEA1 120713Z 12012KT 29/11 A3009 RMK A01 T02880105  RH  032%=      5-min Rain = 0
KEA1 120714Z 11012KT 29/11 A3009 RMK A01 T02880105  RH  032%=      5-min Rain = 0
KEA1 120715Z 10009KT 29/10 A3009 RMK A01 T02890104  RH  032%=      5-min Rain = 0
KEA1 120716Z 11008KT 29/11 A3009 RMK A01 T02890105  RH  032%=      5-min Rain = 0
KEA1 120717Z 11011KT 29/11 A3009 RMK A01 T02890105  RH  032%=      5-min Rain = 0
KEA1 120718Z 12010KT 29/11 A3009 RMK A01 T02890105  RH  032%=      5-min Rain = 0
KEA1 120719Z 11009KT 29/11 A3009 RMK A01 T02890105  RH  032%=      5-min Rain = 0
KEA1 120720Z 11009KT 29/11 A3009 RMK A01 T02880105  RH  032%=      5-min Rain = 0
KEA1 120721Z 11008KT 29/11 A3009 RMK A01 T02870105  RH  032%=      5-min Rain = 0
KEA1 120722Z 11010KT 29/11 A3008 RMK A01 T02870105  RH  032%=      5-min Rain = 0
KEA1 120723Z 11010KT 29/11 A3008 RMK A01 T02880105  RH  032%=      5-min Rain = 0
KEA1 120724Z 11011KT 29/10 A3008 RMK A01 T02890104  RH  032%=      5-min Rain = 0
KEA1 120725Z 12013KT 29/10 A3008 RMK A01 T02920104  RH  031%=      5-min Rain = 0
KEA1 120726Z 10010G15KT 29/10 A3009 RMK A01 T02940104  RH  031%=      5-min Rain = 0
KEA1 120727Z 11009KT 30/10 A3009 RMK A01 T02960104  RH  030%=      5-min Rain = 0
KEA1 120728Z 12011KT 30/10 A3008 RMK A01 T02960104  RH  030%=      5-min Rain = 0
KEA1 120729Z 12010KT 30/10 A3008 RMK A01 T02960104  RH  030%=      5-min Rain = 0
KEA1 120730Z 12010KT 30/11 A3008 RMK A01 T02960105  RH  031%=      5-min Rain = 0
KEA1 120731Z 13009KT 30/11 A3008 RMK A01 T02950105  RH  031%=      5-min Rain = 0
KEA1 120732Z 13010KT 30/11 A3008 RMK A01 T02950106  RH  031%=      5-min Rain = 0
KEA1 120733Z 13008KT 30/11 A3009 RMK A01 T02950106  RH  031%=      5-min Rain = 0
KEA1 120734Z 13009KT 29/11 A3009 RMK A01 T02930105  RH  031%=      5-min Rain = 0
KEA1 120735Z 13010KT 29/11 A3009 RMK A01 T02930106  RH  031%=      5-min Rain = 0
KEA1 120736Z 13009KT 29/11 A3008 RMK A01 T02920106  RH  031%=      5-min Rain = 0
KEA1 120737Z 14008KT 29/11 A3008 RMK A01 T02930106  RH  031%=      5-min Rain = 0
KEA1 120738Z 14008KT 29/11 A3008 RMK A01 T02920106  RH  032%=      5-min Rain = 0
KEA1 120739Z 14008KT 29/11 A3008 RMK A01 T02910106  RH  032%=      5-min Rain = 0
KEA1 120740Z 14007KT 29/11 A3008 RMK A01 T02900106  RH  032%=      5-min Rain = 0
KEA1 120741Z 14006KT 29/11 A3008 RMK A01 T02900107  RH  032%=      5-min Rain = 0
KEA1 120742Z 14009KT 29/11 A3008 RMK A01 T02890107  RH  032%=      5-min Rain = 0
KEA1 120743Z 14009KT 29/11 A3008 RMK A01 T02890107  RH  032%=      5-min Rain = 0
KEA1 120744Z 14009KT 29/11 A3008 RMK A01 T02890107  RH  032%=      5-min Rain = 0
KEA1 120745Z 14010KT 29/11 A3008 RMK A01 T02890107  RH  032%=      5-min Rain = 0
KEA1 120746Z 13009KT 29/11 A3008 RMK A01 T02900107  RH  032%=      5-min Rain = 0
KEA1 120747Z 13009KT 29/11 A3008 RMK A01 T02910108  RH  032%=      5-min Rain = 0
KEA1 120748Z 13009KT 29/11 A3008 RMK A01 T02900108  RH  032%=      5-min Rain = 0
KEA1 120749Z 12009KT 29/11 A3008 RMK A01 T02900108  RH  032%=      5-min Rain = 0
KEA1 120750Z 13010KT 29/11 A3008 RMK A01 T02900108  RH  032%=      5-min Rain = 0
KEA1 120751Z 14009KT 29/11 A3008 RMK A01 T02900108  RH  032%=      5-min Rain = 0
KEA1 120752Z 15009KT 29/11 A3008 RMK A01 T02900109  RH  032%=      5-min Rain = 0
KEA1 120753Z 14009KT 29/11 A3008 RMK A01 T02880108  RH  033%=      5-min Rain = 0
KEA1 120754Z 14008KT 29/11 A3008 RMK A01 T02880109  RH  033%=      5-min Rain = 0
KEA1 120755Z 14007KT 29/11 A3008 RMK A01 T02870109  RH  033%=      5-min Rain = 0
KEA1 120756Z 13007KT 29/11 A3008 RMK A01 T02860109  RH  033%=      5-min Rain = 0
KEA1 120757Z 14007KT 29/11 A3008 RMK A01 T02860109  RH  033%=      5-min Rain = 0
KEA1 120758Z 14008KT 29/11 A3008 RMK A01 T02860109  RH  033%=      5-min Rain = 0
KEA1 120759Z 14007KT 29/11 A3008 RMK A01 T02860110  RH  034%=      5-min Rain = 0
KEA1 120800Z 14008KT 29/11 A3008 RMK A01 T02850110  RH  034%=      5-min Rain = 0
KEA1 120801Z 15008KT 28/11 A3008 RMK A01 T02840110  RH  034%=      5-min Rain = 0
KEA1 120802Z 15010KT 28/11 A3008 RMK A01 T02830110  RH  034%=      5-min Rain = 0
KEA1 120803Z 15010KT 28/11 A3008 RMK A01 T02820110  RH  034%=      5-min Rain = 0
KEA1 120804Z 15010KT 28/11 A3008 RMK A01 T02820111  RH  034%=      5-min Rain = 0
KEA1 120805Z 14010KT 28/11 A3008 RMK A01 T02820110  RH  034%=      5-min Rain = 0
KEA1 120806Z 13008KT 28/11 A3007 RMK A01 T02830111  RH  034%=      5-min Rain = 0
KEA1 120807Z 13009KT 29/11 A3007 RMK A01 T02850111  RH  034%=      5-min Rain = 0
KEA1 120808Z 13009KT 29/11 A3007 RMK A01 T02860111  RH  034%=      5-min Rain = 0
KEA1 120809Z 13009KT 29/11 A3008 RMK A01 T02860111  RH  034%=      5-min Rain = 0
KEA1 120810Z 13009KT 29/11 A3008 RMK A01 T02860112  RH  034%=      5-min Rain = 0
KEA1 120811Z 13009KT 29/11 A3008 RMK A01 T02860112  RH  034%=      5-min Rain = 0
KEA1 120812Z 14009KT 29/11 A3008 RMK A01 T02860112  RH  034%=      5-min Rain = 0
KEA1 120813Z 14009KT 29/11 A3008 RMK A01 T02860113  RH  034%=      5-min Rain = 0
KEA1 120814Z 14009KT 29/11 A3008 RMK A01 T02860112  RH  034%=      5-min Rain = 0
KEA1 120815Z 14008KT 29/11 A3008 RMK A01 T02860112  RH  034%=      5-min Rain = 0
KEA1 120816Z 14009KT 29/11 A3008 RMK A01 T02850113  RH  034%=      5-min Rain = 0
KEA1 120817Z 15010KT 28/11 A3008 RMK A01 T02840113  RH  035%=      5-min Rain = 0
KEA1 120818Z 14010KT 28/11 A3008 RMK A01 T02840114  RH  035%=      5-min Rain = 0
KEA1 120819Z 14009KT 28/11 A3008 RMK A01 T02830114  RH  035%=      5-min Rain = 0
KEA1 120820Z 14009KT 28/11 A3008 RMK A01 T02830114  RH  035%=      5-min Rain = 0
KEA1 120821Z 14009KT 28/11 A3008 RMK A01 T02830114  RH  035%=      5-min Rain = 0
KEA1 120822Z 13010KT 28/11 A3008 RMK A01 T02830114  RH  035%=      5-min Rain = 0
KEA1 120823Z 14010KT 28/11 A3008 RMK A01 T02840114  RH  035%=      5-min Rain = 0
KEA1 120824Z 14009KT 28/12 A3008 RMK A01 T02840115  RH  035%=      5-min Rain = 0
KEA1 120825Z 14008KT 28/12 A3008 RMK A01 T02840115  RH  035%=      5-min Rain = 0
KEA1 120826Z 14009KT 28/12 A3008 RMK A01 T02830115  RH  035%=      5-min Rain = 0
KEA1 120827Z 14008KT 28/12 A3008 RMK A01 T02820115  RH  036%=      5-min Rain = 0
KEA1 120828Z 14008KT 28/12 A3008 RMK A01 T02810116  RH  036%=      5-min Rain = 0
KEA1 120829Z 14008KT 28/12 A3008 RMK A01 T02820117  RH  036%=      5-min Rain = 0
KEA1 120830Z 14007KT 28/12 A3008 RMK A01 T02810117  RH  036%=      5-min Rain = 0
KEA1 120831Z 14007KT 28/12 A3008 RMK A01 T02800117  RH  036%=      5-min Rain = 0
KEA1 120832Z 14008KT 28/12 A3008 RMK A01 T02800117  RH  036%=      5-min Rain = 0
KEA1 120833Z 14008KT 28/12 A3008 RMK A01 T02800117  RH  036%=      5-min Rain = 0
KEA1 120834Z 14008KT 28/12 A3008 RMK A01 T02800118  RH  036%=      5-min Rain = 0
KEA1 120835Z 15008KT 28/12 A3008 RMK A01 T02800117  RH  036%=      5-min Rain = 0
KEA1 120836Z 15007KT 28/12 A3008 RMK A01 T02800118  RH  037%=      5-min Rain = 0
KEA1 120837Z 15007KT 28/12 A3008 RMK A01 T02790118  RH  037%=      5-min Rain = 0
KEA1 120838Z 15006KT 28/12 A3008 RMK A01 T02780118  RH  037%=      5-min Rain = 0
KEA1 120839Z 15006KT 28/12 A3008 RMK A01 T02770118  RH  037%=      5-min Rain = 0
KEA1 120840Z 15006KT 28/12 A3008 RMK A01 T02770117  RH  037%=      5-min Rain = 0
KEA1 120841Z 15006KT 28/12 A3008 RMK A01 T02770117  RH  037%=      5-min Rain = 0
KEA1 120842Z 16007KT 28/12 A3008 RMK A01 T02760118  RH  037%=      5-min Rain = 0
KEA1 120843Z 15008KT 28/12 A3008 RMK A01 T02750117  RH  038%=      5-min Rain = 0
KEA1 120844Z 14008KT 27/12 A3008 RMK A01 T02740117  RH  037%=      5-min Rain = 0
KEA1 120845Z 15007KT 28/12 A3008 RMK A01 T02750116  RH  037%=      5-min Rain = 0
KEA1 120846Z 15007KT 28/12 A3008 RMK A01 T02750116  RH  037%=      5-min Rain = 0
KEA1 120847Z 15007KT 28/12 A3008 RMK A01 T02750117  RH  037%=      5-min Rain = 0
KEA1 120848Z 15007KT 27/12 A3008 RMK A01 T02740117  RH  038%=      5-min Rain = 0
KEA1 120849Z 16006KT 27/12 A3008 RMK A01 T02730117  RH  038%=      5-min Rain = 0
KEA1 120850Z 16007KT 27/12 A3008 RMK A01 T02720117  RH  038%=      5-min Rain = 0
KEA1 120851Z 17007KT 27/12 A3008 RMK A01 T02710117  RH  038%=      5-min Rain = 0
KEA1 120852Z 18007KT 27/12 A3008 RMK A01 T02690117  RH  039%=      5-min Rain = 0
KEA1 120853Z 18007KT 27/12 A3008 RMK A01 T02670117  RH  039%=      5-min Rain = 0
KEA1 120854Z 18006KT 27/12 A3008 RMK A01 T02650117  RH  040%=      5-min Rain = 0
KEA1 120855Z 17006KT 26/12 A3008 RMK A01 T02640117  RH  040%=      5-min Rain = 0
KEA1 120856Z 17006KT 26/12 A3008 RMK A01 T02630117  RH  040%=      5-min Rain = 0
KEA1 120857Z 16006KT 26/12 A3008 RMK A01 T02640117  RH  040%=      5-min Rain = 0
KEA1 120858Z 17005KT 26/12 A3008 RMK A01 T02640117  RH  040%=      5-min Rain = 0
KEA1 120859Z 18007KT 26/12 A3008 RMK A01 T02640118  RH  040%=      5-min Rain = 0
KEA1 120900Z 18008KT 26/12 A3008 RMK A01 T02630117  RH  040%=      5-min Rain = 0
KEA1 120901Z 17007KT 26/12 A3008 RMK A01 T02620117  RH  040%=      5-min Rain = 0
KEA1 120902Z 17007KT 26/12 A3008 RMK A01 T02610117  RH  041%=      5-min Rain = 0
KEA1 120903Z 17007KT 26/12 A3008 RMK A01 T02610117  RH  041%=      5-min Rain = 0
KEA1 120904Z 17007KT 26/12 A3008 RMK A01 T02600117  RH  041%=      5-min Rain = 0
KEA1 120905Z 18007KT 26/12 A3008 RMK A01 T02600117  RH  041%=      5-min Rain = 0
KEA1 120906Z 17007KT 26/12 A3008 RMK A01 T02600117  RH  041%=      5-min Rain = 0
KEA1 120907Z 17006KT 26/12 A3008 RMK A01 T02590117  RH  041%=      5-min Rain = 0
KEA1 120908Z 17006KT 26/12 A3008 RMK A01 T02590117  RH  041%=      5-min Rain = 0
KEA1 120909Z 17006KT 26/12 A3008 RMK A01 T02590117  RH  041%=      5-min Rain = 0
KEA1 120910Z 17006KT 26/12 A3008 RMK A01 T02590117  RH  041%=      5-min Rain = 0
KEA1 120911Z 17006KT 26/12 A3008 RMK A01 T02590117  RH  041%=      5-min Rain = 0
KEA1 120912Z 17006KT 26/12 A3008 RMK A01 T02590117  RH  041%=      5-min Rain = 0
KEA1 120913Z 18006KT 26/12 A3008 RMK A01 T02580117  RH  041%=      5-min Rain = 0
KEA1 120914Z 18006KT 26/12 A3008 RMK A01 T02570118  RH  042%=      5-min Rain = 0
KEA1 120915Z 17006KT 26/12 A3008 RMK A01 T02560117  RH  042%=      5-min Rain = 0
KEA1 120916Z 17006KT 26/12 A3008 RMK A01 T02560117  RH  042%=      5-min Rain = 0
KEA1 120917Z 16005KT 26/12 A3008 RMK A01 T02550118  RH  042%=      5-min Rain = 0
KEA1 120918Z 16005KT 26/12 A3008 RMK A01 T02550118  RH  042%=      5-min Rain = 0
KEA1 120919Z 16005KT 25/12 A3008 RMK A01 T02540117  RH  042%=      5-min Rain = 0
KEA1 120920Z 16006KT 25/12 A3008 RMK A01 T02540118  RH  042%=      5-min Rain = 0
KEA1 120921Z 16005KT 25/12 A3008 RMK A01 T02540117  RH  042%=      5-min Rain = 0
KEA1 120922Z 16005KT 25/12 A3008 RMK A01 T02540118  RH  042%=      5-min Rain = 0
KEA1 120923Z 16004KT 25/12 A3008 RMK A01 T02540118  RH  043%=      5-min Rain = 0
KEA1 120924Z 16004KT 25/12 A3008 RMK A01 T02530118  RH  043%=      5-min Rain = 0
KEA1 120925Z 17004KT 25/12 A3008 RMK A01 T02540118  RH  043%=      5-min Rain = 0
KEA1 120926Z 18005KT 25/12 A3008 RMK A01 T02540118  RH  043%=      5-min Rain = 0
KEA1 120927Z 18006KT 25/12 A3008 RMK A01 T02530117  RH  043%=      5-min Rain = 0
KEA1 120928Z 18006KT 25/12 A3008 RMK A01 T02520117  RH  043%=      5-min Rain = 0
KEA1 120929Z 17006KT 25/12 A3008 RMK A01 T02490117  RH  043%=      5-min Rain = 0
KEA1 120930Z 16006KT 25/12 A3008 RMK A01 T02470116  RH  044%=      5-min Rain = 0
KEA1 120931Z 16006KT 25/12 A3008 RMK A01 T02470116  RH  044%=      5-min Rain = 0
KEA1 120932Z 16006KT 25/12 A3008 RMK A01 T02470117  RH  044%=      5-min Rain = 0
KEA1 120933Z 16006KT 25/12 A3008 RMK A01 T02480116  RH  044%=      5-min Rain = 0
KEA1 120934Z 16006KT 25/12 A3008 RMK A01 T02480116  RH  044%=      5-min Rain = 0
KEA1 120935Z 16006KT 25/12 A3008 RMK A01 T02480116  RH  043%=      5-min Rain = 0
KEA1 120936Z 16006KT 25/12 A3008 RMK A01 T02480116  RH  043%=      5-min Rain = 0
KEA1 120937Z 16006KT 25/12 A3008 RMK A01 T02490116  RH  043%=      5-min Rain = 0
KEA1 120938Z 15006KT 25/12 A3008 RMK A01 T02490116  RH  043%=      5-min Rain = 0
KEA1 120939Z 15006KT 25/12 A3008 RMK A01 T02500116  RH  043%=      5-min Rain = 0
KEA1 120940Z 15006KT 25/12 A3008 RMK A01 T02510116  RH  043%=      5-min Rain = 0
KEA1 120941Z 15006KT 25/12 A3008 RMK A01 T02510116  RH  043%=      5-min Rain = 0
KEA1 120942Z 15006KT 25/12 A3008 RMK A01 T02520116  RH  043%=      5-min Rain = 0
KEA1 120943Z 15006KT 25/12 A3008 RMK A01 T02510116  RH  043%=      5-min Rain = 0
KEA1 120944Z 15006KT 25/12 A3008 RMK A01 T02510116  RH  043%=      5-min Rain = 0
KEA1 120945Z 15006KT 25/12 A3008 RMK A01 T02510116  RH  043%=      5-min Rain = 0
KEA1 120946Z 15006KT 25/12 A3008 RMK A01 T02500115  RH  043%=      5-min Rain = 0
KEA1 120947Z 15006KT 25/12 A3008 RMK A01 T02500115  RH  043%=      5-min Rain = 0
KEA1 120948Z 15006KT 25/12 A3008 RMK A01 T02490115  RH  043%=      5-min Rain = 0
KEA1 120949Z 15006KT 25/12 A3008 RMK A01 T02490116  RH  043%=      5-min Rain = 0
KEA1 120950Z 15006KT 25/12 A3008 RMK A01 T02490116  RH  043%=      5-min Rain = 0
KEA1 120951Z 16006KT 25/12 A3008 RMK A01 T02480116  RH  044%=      5-min Rain = 0
KEA1 120952Z 16006KT 25/12 A3008 RMK A01 T02460116  RH  044%=      5-min Rain = 0
KEA1 120953Z 15006KT 25/12 A3008 RMK A01 T02450116  RH  044%=      5-min Rain = 0
KEA1 120954Z 15006KT 24/12 A3008 RMK A01 T02440116  RH  044%=      5-min Rain = 0
KEA1 120955Z 15006KT 24/12 A3008 RMK A01 T02440116  RH  045%=      5-min Rain = 0
KEA1 120956Z 15006KT 24/12 A3008 RMK A01 T02430116  RH  045%=      5-min Rain = 0
KEA1 120957Z 15006KT 24/12 A3008 RMK A01 T02430116  RH  045%=      5-min Rain = 0
KEA1 120958Z 16006KT 24/12 A3008 RMK A01 T02430115  RH  045%=      5-min Rain = 0
KEA1 120959Z 16006KT 24/12 A3008 RMK A01 T02440116  RH  044%=      5-min Rain = 0
KEA1 121000Z 16006KT 25/12 A3008 RMK A01 T02450116  RH  044%=      5-min Rain = 0
KEA1 121001Z 16006KT 24/12 A3008 RMK A01 T02440116  RH  045%=      5-min Rain = 0
KEA1 121002Z 15007KT 24/12 A3008 RMK A01 T02440116  RH  045%=      5-min Rain = 0
KEA1 121003Z 15007KT 24/12 A3008 RMK A01 T02440116  RH  045%=      5-min Rain = 0
KEA1 121004Z 14007KT 25/12 A3008 RMK A01 T02450116  RH  044%=      5-min Rain = 0
KEA1 121005Z 14007KT 25/12 A3008 RMK A01 T02470116  RH  044%=      5-min Rain = 0
KEA1 121006Z 15007KT 25/12 A3008 RMK A01 T02480116  RH  044%=      5-min Rain = 0
KEA1 121007Z 14006KT 25/12 A3008 RMK A01 T02490116  RH  043%=      5-min Rain = 0
KEA1 121008Z 14005KT 25/12 A3008 RMK A01 T02500117  RH  043%=      5-min Rain = 0
KEA1 121009Z 14005KT 25/12 A3008 RMK A01 T02500117  RH  043%=      5-min Rain = 0
KEA1 121010Z 14004KT 25/12 A3008 RMK A01 T02480117  RH  044%=      5-min Rain = 0
KEA1 121011Z 15004KT 25/12 A3008 RMK A01 T02470117  RH  044%=      5-min Rain = 0
KEA1 121012Z 17003KT 25/12 A3008 RMK A01 T02460117  RH  044%=      5-min Rain = 0
KEA1 121013Z 18003KT 25/12 A3008 RMK A01 T02460116  RH  044%=      5-min Rain = 0
KEA1 121014Z 18002KT 25/12 A3008 RMK A01 T02450117  RH  045%=      5-min Rain = 0
KEA1 121015Z 17002KT 24/12 A3008 RMK A01 T02440116  RH  045%=      5-min Rain = 0
KEA1 121016Z 15003KT 24/12 A3008 RMK A01 T02440116  RH  045%=      5-min Rain = 0
KEA1 121017Z 14004KT 24/12 A3008 RMK A01 T02430116  RH  045%=      5-min Rain = 0
KEA1 121018Z 14005KT 24/12 A3008 RMK A01 T02440117  RH  045%=      5-min Rain = 0
KEA1 121019Z 14005KT 25/12 A3008 RMK A01 T02460118  RH  045%=      5-min Rain = 0
KEA1 121020Z 14005KT 25/12 A3008 RMK A01 T02470118  RH  044%=      5-min Rain = 0
KEA1 121021Z 13005KT 25/12 A3008 RMK A01 T02480118  RH  044%=      5-min Rain = 0
KEA1 121022Z 14005KT 25/12 A3008 RMK A01 T02470118  RH  044%=      5-min Rain = 0
KEA1 121023Z 14006KT 25/12 A3008 RMK A01 T02470118  RH  045%=      5-min Rain = 0
KEA1 121024Z 14005KT 25/12 A3008 RMK A01 T02470119  RH  045%=      5-min Rain = 0
KEA1 121025Z 14005KT 25/12 A3008 RMK A01 T02470119  RH  045%=      5-min Rain = 0
KEA1 121026Z 14005KT 25/12 A3008 RMK A01 T02480119  RH  044%=      5-min Rain = 0
KEA1 121027Z 14005KT 25/12 A3007 RMK A01 T02490119  RH  044%=      5-min Rain = 0
KEA1 121028Z 14005KT 25/12 A3007 RMK A01 T02490119  RH  044%=      5-min Rain = 0
KEA1 121029Z 14005KT 25/12 A3007 RMK A01 T02490120  RH  044%=      5-min Rain = 0
KEA1 121030Z 14005KT 25/12 A3007 RMK A01 T02500120  RH  044%=      5-min Rain = 0
KEA1 121031Z 15005KT 25/12 A3007 RMK A01 T02500120  RH  044%=      5-min Rain = 0
KEA1 121032Z 15005KT 25/12 A3007 RMK A01 T02500120  RH  044%=      5-min Rain = 0
KEA1 121033Z 15004KT 25/12 A3007 RMK A01 T02500120  RH  044%=      5-min Rain = 0
KEA1 121034Z 14004KT 25/12 A3007 RMK A01 T02500120  RH  044%=      5-min Rain = 0
KEA1 121035Z 15004KT 25/12 A3007 RMK A01 T02500120  RH  044%=      5-min Rain = 0
KEA1 121036Z 15004KT 25/12 A3007 RMK A01 T02490120  RH  044%=      5-min Rain = 0
KEA1 121037Z 15004KT 25/12 A3007 RMK A01 T02480120  RH  045%=      5-min Rain = 0
KEA1 121038Z 15004KT 25/12 A3007 RMK A01 T02470120  RH  045%=      5-min Rain = 0
KEA1 121039Z 15004KT 25/12 A3007 RMK A01 T02460120  RH  045%=      5-min Rain = 0
KEA1 121040Z 15004KT 25/12 A3007 RMK A01 T02460120  RH  045%=      5-min Rain = 0
KEA1 121041Z 15004KT 25/12 A3007 RMK A01 T02470120  RH  045%=      5-min Rain = 0
KEA1 121042Z 15004KT 25/12 A3007 RMK A01 T02470120  RH  045%=      5-min Rain = 0
KEA1 121043Z 14004KT 25/12 A3007 RMK A01 T02480120  RH  045%=      5-min Rain = 0
KEA1 121044Z 14005KT 25/12 A3007 RMK A01 T02490121  RH  045%=      5-min Rain = 0
KEA1 121045Z 14005KT 25/12 A3007 RMK A01 T02500121  RH  045%=      5-min Rain = 0
KEA1 121046Z 14005KT 25/12 A3007 RMK A01 T02480121  RH  045%=      5-min Rain = 0
KEA1 121047Z 15005KT 25/12 A3007 RMK A01 T02470121  RH  045%=      5-min Rain = 0
KEA1 121048Z 14005KT 25/12 A3007 RMK A01 T02460121  RH  046%=      5-min Rain = 0
KEA1 121049Z 14005KT 25/12 A3007 RMK A01 T02450121  RH  046%=      5-min Rain = 0
KEA1 121050Z 14004KT 24/12 A3007 RMK A01 T02440121  RH  046%=      5-min Rain = 0
KEA1 121051Z 14004KT 24/12 A3007 RMK A01 T02440121  RH  046%=      5-min Rain = 0
KEA1 121052Z 15004KT 24/12 A3007 RMK A01 T02440122  RH  046%=      5-min Rain = 0
KEA1 121053Z 15004KT 24/12 A3007 RMK A01 T02430121  RH  046%=      5-min Rain = 0
KEA1 121054Z 15004KT 24/12 A3007 RMK A01 T02430121  RH  047%=      5-min Rain = 0
KEA1 121055Z 15004KT 24/12 A3007 RMK A01 T02420121  RH  047%=      5-min Rain = 0
KEA1 121056Z 15004KT 24/12 A3008 RMK A01 T02420121  RH  047%=      5-min Rain = 0
KEA1 121057Z 16004KT 24/12 A3008 RMK A01 T02410121  RH  047%=      5-min Rain = 0
KEA1 121058Z 16004KT 24/12 A3008 RMK A01 T02410121  RH  047%=      5-min Rain = 0
KEA1 121059Z 16004KT 24/12 A3008 RMK A01 T02410122  RH  047%=      5-min Rain = 0
KEA1 121100Z 16005KT 24/12 A3008 RMK A01 T02410122  RH  047%=      5-min Rain = 0
KEA1 121101Z 16004KT 24/12 A3008 RMK A01 T02410122  RH  047%=      5-min Rain = 0
KEA1 121102Z 16005KT 24/12 A3008 RMK A01 T02410122  RH  047%=      5-min Rain = 0
KEA1 121103Z 16005KT 24/12 A3008 RMK A01 T02410122  RH  047%=      5-min Rain = 0
KEA1 121104Z 16005KT 24/12 A3008 RMK A01 T02400122  RH  047%=      5-min Rain = 0
KEA1 121105Z 17005KT 24/12 A3008 RMK A01 T02400122  RH  047%=      5-min Rain = 0
KEA1 121106Z 17005KT 24/12 A3008 RMK A01 T02400122  RH  047%=      5-min Rain = 0
KEA1 121107Z 18005KT 24/12 A3008 RMK A01 T02390121  RH  048%=      5-min Rain = 0
KEA1 121108Z 17005KT 24/12 A3008 RMK A01 T02370121  RH  048%=      5-min Rain = 0
KEA1 121109Z 17006KT 24/12 A3008 RMK A01 T02360122  RH  049%=      5-min Rain = 0
KEA1 121110Z 18006KT 24/12 A3008 RMK A01 T02360122  RH  049%=      5-min Rain = 0
KEA1 121111Z 18006KT 24/12 A3008 RMK A01 T02360122  RH  049%=      5-min Rain = 0
KEA1 121112Z 18006KT 24/12 A3008 RMK A01 T02370123  RH  049%=      5-min Rain = 0
KEA1 121113Z 18006KT 24/12 A3008 RMK A01 T02370123  RH  049%=      5-min Rain = 0
KEA1 121114Z 18006KT 24/12 A3008 RMK A01 T02370123  RH  049%=      5-min Rain = 0
KEA1 121115Z 19006KT 24/12 A3008 RMK A01 T02370123  RH  049%=      5-min Rain = 0
KEA1 121116Z 19007KT 24/12 A3008 RMK A01 T02370123  RH  049%=      5-min Rain = 0
KEA1 121117Z 19007KT 24/12 A3008 RMK A01 T02360123  RH  049%=      5-min Rain = 0
KEA1 121118Z 19007KT 24/12 A3008 RMK A01 T02350123  RH  049%=      5-min Rain = 0
KEA1 121119Z 19007KT 23/12 A3008 RMK A01 T02340123  RH  050%=      5-min Rain = 0
KEA1 121120Z 19007KT 23/12 A3008 RMK A01 T02320123  RH  050%=      5-min Rain = 0
KEA1 121121Z 19007KT 23/12 A3008 RMK A01 T02310123  RH  051%=      5-min Rain = 0
KEA1 121122Z 19007KT 23/12 A3008 RMK A01 T02300124  RH  051%=      5-min Rain = 0
KEA1 121123Z 19007KT 23/12 A3008 RMK A01 T02290124  RH  051%=      5-min Rain = 0
KEA1 121124Z 19008KT 23/13 A3008 RMK A01 T02290125  RH  052%=      5-min Rain = 0
KEA1 121125Z 19008KT 23/13 A3008 RMK A01 T02280125  RH  052%=      5-min Rain = 0
KEA1 121126Z 19008KT 23/13 A3008 RMK A01 T02290125  RH  052%=      5-min Rain = 0
KEA1 121127Z 19008KT 23/13 A3008 RMK A01 T02290125  RH  052%=      5-min Rain = 0
KEA1 121128Z 20009KT 23/13 A3008 RMK A01 T02290126  RH  052%=      5-min Rain = 0
KEA1 121129Z 20009KT 23/13 A3008 RMK A01 T02290126  RH  052%=      5-min Rain = 0
KEA1 121130Z 20010KT 23/13 A3008 RMK A01 T02290126  RH  052%=      5-min Rain = 0
KEA1 121131Z 20010KT 23/13 A3008 RMK A01 T02300125  RH  052%=      5-min Rain = 0
KEA1 121132Z 20010KT 23/13 A3008 RMK A01 T02310125  RH  051%=      5-min Rain = 0
KEA1 121133Z 20010KT 23/13 A3008 RMK A01 T02330125  RH  051%=      5-min Rain = 0
KEA1 121134Z 20010KT 24/12 A3008 RMK A01 T02350124  RH  050%=      5-min Rain = 0
KEA1 121135Z 20010KT 24/12 A3008 RMK A01 T02370124  RH  049%=      5-min Rain = 0
KEA1 121136Z 20010KT 24/12 A3008 RMK A01 T02390123  RH  048%=      5-min Rain = 0
KEA1 121137Z 20010KT 24/12 A3008 RMK A01 T02390123  RH  048%=      5-min Rain = 0
KEA1 121138Z 20010KT 24/12 A3008 RMK A01 T02400122  RH  048%=      5-min Rain = 0
KEA1 121139Z 20011KT 24/12 A3008 RMK A01 T02410122  RH  047%=      5-min Rain = 0
KEA1 121140Z 20011KT 24/12 A3008 RMK A01 T02420121  RH  047%=      5-min Rain = 0
KEA1 121141Z 20011KT 25/12 A3008 RMK A01 T02450120  RH  045%=      5-min Rain = 0
KEA1 121142Z 20011KT 25/12 A3008 RMK A01 T02480119  RH  044%=      5-min Rain = 0
KEA1 121143Z 20010KT 25/12 A3008 RMK A01 T02500118  RH  044%=      5-min Rain = 0
KEA1 121144Z 20010KT 25/12 A3008 RMK A01 T02510118  RH  043%=      5-min Rain = 0
KEA1 121145Z 20010KT 25/12 A3008 RMK A01 T02510118  RH  043%=      5-min Rain = 0
KEA1 121146Z 20010KT 25/12 A3008 RMK A01 T02520117  RH  043%=      5-min Rain = 0
KEA1 121147Z 20011KT 25/12 A3008 RMK A01 T02530117  RH  043%=      5-min Rain = 0
KEA1 121148Z 20011KT 25/12 A3008 RMK A01 T02540116  RH  042%=      5-min Rain = 0
KEA1 121149Z 20011KT 26/12 A3008 RMK A01 T02550115  RH  041%=      5-min Rain = 0
KEA1 121150Z 21010KT 26/12 A3008 RMK A01 T02570115  RH  041%=      5-min Rain = 0
KEA1 121151Z 20012KT 26/11 A3008 RMK A01 T02580113  RH  040%=      5-min Rain = 0
KEA1 121152Z 20012KT 26/11 A3008 RMK A01 T02610113  RH  039%=      5-min Rain = 0
KEA1 121153Z 20012KT 26/11 A3008 RMK A01 T02630111  RH  039%=      5-min Rain = 0
KEA1 121154Z 20012KT 26/11 A3008 RMK A01 T02640111  RH  038%=      5-min Rain = 0
KEA1 121155Z 20010KT 27/11 A3008 RMK A01 T02660110  RH  038%=      5-min Rain = 0
KEA1 121156Z 20010KT 27/11 A3008 RMK A01 T02660110  RH  038%=      5-min Rain = 0
KEA1 121157Z 20010KT 27/11 A3009 RMK A01 T02670110  RH  038%=      5-min Rain = 0
KEA1 121158Z 20010KT 27/11 A3009 RMK A01 T02670111  RH  038%=      5-min Rain = 0
KEA1 121159Z 20010KT 27/11 A3009 RMK A01 T02650110  RH  038%=      5-min Rain = 0
KEA1 121200Z 20010KT 27/11 A3009 RMK A01 T02650110  RH  038%=      5-min Rain = 0
KEA1 121201Z 20010KT 26/11 A3009 RMK A01 T02640110  RH  038%=      5-min Rain = 0
KEA1 121202Z 20010KT 26/11 A3009 RMK A01 T02630110  RH  038%=      5-min Rain = 0
KEA1 121203Z 20010KT 26/11 A3009 RMK A01 T02620110  RH  039%=      5-min Rain = 0
KEA1 121204Z 20009KT 26/11 A3009 RMK A01 T02610110  RH  039%=      5-min Rain = 0
KEA1 121205Z 20009KT 26/11 A3009 RMK A01 T02600110  RH  039%=      5-min Rain = 0
KEA1 121206Z 20009KT 26/11 A3009 RMK A01 T02590109  RH  039%=      5-min Rain = 0
KEA1 121207Z 20009KT 26/11 A3009 RMK A01 T02590109  RH  039%=      5-min Rain = 0
KEA1 121208Z 20009KT 26/11 A3009 RMK A01 T02580109  RH  039%=      5-min Rain = 0
KEA1 121209Z 20009KT 26/11 A3009 RMK A01 T02580109  RH  039%=      5-min Rain = 0
KEA1 121210Z 20009KT 26/11 A3009 RMK A01 T02570109  RH  039%=      5-min Rain = 0
KEA1 121211Z 20009KT 26/11 A3008 RMK A01 T02570109  RH  039%=      5-min Rain = 0
KEA1 121212Z 20009KT 26/11 A3009 RMK A01 T02560109  RH  040%=      5-min Rain = 0
KEA1 121213Z 20010KT 26/11 A3008 RMK A01 T02570109  RH  040%=      5-min Rain = 0
KEA1 121214Z 20009KT 26/11 A3008 RMK A01 T02560109  RH  040%=      5-min Rain = 0
KEA1 121215Z 20008KT 26/11 A3008 RMK A01 T02560108  RH  039%=      5-min Rain = 0
KEA1 121216Z 20008KT 26/11 A3008 RMK A01 T02570108  RH  039%=      5-min Rain = 0
KEA1 121217Z 20008KT 26/11 A3008 RMK A01 T02570108  RH  039%=      5-min Rain = 0
KEA1 121218Z 20008KT 26/11 A3008 RMK A01 T02570108  RH  039%=      5-min Rain = 0
KEA1 121219Z 20008KT 26/11 A3008 RMK A01 T02570108  RH  039%=      5-min Rain = 0
KEA1 121220Z 19008KT 26/11 A3008 RMK A01 T02570107  RH  039%=      5-min Rain = 0
KEA1 121221Z 19007KT 26/11 A3008 RMK A01 T02570108  RH  039%=      5-min Rain = 0
KEA1 121222Z 17006KT 26/11 A3009 RMK A01 T02570108  RH  039%=      5-min Rain = 0
KEA1 121223Z 17007KT 26/11 A3009 RMK A01 T02560109  RH  040%=      5-min Rain = 0
KEA1 121224Z 17008KT 26/11 A3008 RMK A01 T02550108  RH  040%=      5-min Rain = 0
KEA1 121225Z 17009KT 26/11 A3009 RMK A01 T02550108  RH  040%=      5-min Rain = 0
KEA1 121226Z 18008KT 25/11 A3008 RMK A01 T02540107  RH  040%=      5-min Rain = 0
KEA1 121227Z 17008KT 25/11 A3009 RMK A01 T02540108  RH  040%=      5-min Rain = 0
KEA1 121228Z 18009KT 25/11 A3009 RMK A01 T02540108  RH  040%=      5-min Rain = 0
KEA1 121229Z 17009KT 25/11 A3009 RMK A01 T02530109  RH  040%=      5-min Rain = 0
KEA1 121230Z 18008KT 25/11 A3009 RMK A01 T02530109  RH  040%=      5-min Rain = 0
KEA1 121231Z 18007KT 25/11 A3009 RMK A01 T02530109  RH  041%=      5-min Rain = 0
KEA1 121232Z 17007KT 25/11 A3009 RMK A01 T02520110  RH  041%=      5-min Rain = 0
KEA1 121233Z 17007KT 25/11 A3009 RMK A01 T02510110  RH  041%=      5-min Rain = 0
KEA1 121234Z 17007KT 25/11 A3009 RMK A01 T02510111  RH  041%=      5-min Rain = 0
KEA1 121235Z 18007KT 25/11 A3009 RMK A01 T02500111  RH  042%=      5-min Rain = 0
KEA1 121236Z 17007KT 25/11 A3009 RMK A01 T02500112  RH  042%=      5-min Rain = 0
KEA1 121237Z 17007KT 25/11 A3009 RMK A01 T02490112  RH  042%=      5-min Rain = 0
KEA1 121238Z 17006KT 25/11 A3009 RMK A01 T02490112  RH  042%=      5-min Rain = 0
KEA1 121239Z 17007KT 25/11 A3009 RMK A01 T02490112  RH  042%=      5-min Rain = 0
KEA1 121240Z 16007KT 25/11 A3009 RMK A01 T02490112  RH  042%=      5-min Rain = 0
KEA1 121241Z 16006KT 25/11 A3009 RMK A01 T02490112  RH  042%=      5-min Rain = 0
KEA1 121242Z 15007KT 25/11 A3009 RMK A01 T02490112  RH  042%=      5-min Rain = 0
KEA1 121243Z 15007KT 25/11 A3008 RMK A01 T02490112  RH  042%=      5-min Rain = 0
KEA1 121244Z 14007KT 25/11 A3008 RMK A01 T02490112  RH  042%=      5-min Rain = 0
KEA1 121245Z 14008KT 25/11 A3008 RMK A01 T02500112  RH  042%=      5-min Rain = 0
KEA1 121246Z 15008KT 25/11 A3008 RMK A01 T02510112  RH  042%=      5-min Rain = 0
KEA1 121247Z 14007KT 25/11 A3008 RMK A01 T02510112  RH  042%=      5-min Rain = 0
KEA1 121248Z 15008KT 25/11 A3008 RMK A01 T02520112  RH  041%=      5-min Rain = 0
KEA1 121249Z 14007KT 25/11 A3008 RMK A01 T02530112  RH  041%=      5-min Rain = 0
KEA1 121250Z 14007KT 25/11 A3009 RMK A01 T02540112  RH  041%=      5-min Rain = 0
KEA1 121251Z 14007KT 25/11 A3009 RMK A01 T02540112  RH  041%=      5-min Rain = 0
KEA1 121252Z 14007KT 26/11 A3009 RMK A01 T02550113  RH  041%=      5-min Rain = 0
KEA1 121253Z 14007KT 26/11 A3009 RMK A01 T02550112  RH  041%=      5-min Rain = 0
KEA1 121254Z 14007KT 26/11 A3009 RMK A01 T02560113  RH  041%=      5-min Rain = 0
KEA1 121255Z 15006KT 26/11 A3009 RMK A01 T02560113  RH  041%=      5-min Rain = 0
KEA1 121256Z 15006KT 26/11 A3009 RMK A01 T02570114  RH  041%=      5-min Rain = 0
KEA1 121257Z 15005KT 26/11 A3009 RMK A01 T02570114  RH  041%=      5-min Rain = 0
KEA1 121258Z 15006KT 26/11 A3009 RMK A01 T02570113  RH  041%=      5-min Rain = 0
KEA1 121259Z 15006KT 26/11 A3009 RMK A01 T02580113  RH  040%=      5-min Rain = 0
KEA1 121300Z 16006KT 26/11 A3009 RMK A01 T02590113  RH  040%=      5-min Rain = 0
KEA1 121301Z 16007KT 26/11 A3009 RMK A01 T02600113  RH  040%=      5-min Rain = 0
KEA1 121302Z 16007KT 26/11 A3009 RMK A01 T02610112  RH  039%=      5-min Rain = 0
KEA1 121303Z 17007KT 26/11 A3009 RMK A01 T02620112  RH  039%=      5-min Rain = 0
KEA1 121304Z 17007KT 26/11 A3009 RMK A01 T02630111  RH  038%=      5-min Rain = 0
KEA1 121305Z 17007KT 27/11 A3009 RMK A01 T02650112  RH  038%=      5-min Rain = 0
KEA1 121306Z 17007KT 27/11 A3009 RMK A01 T02650112  RH  038%=      5-min Rain = 0
KEA1 121307Z 17008KT 27/11 A3009 RMK A01 T02660111  RH  038%=      5-min Rain = 0
KEA1 121308Z 17007KT 27/11 A3009 RMK A01 T02660111  RH  038%=      5-min Rain = 0
KEA1 121309Z 17008KT 27/11 A3009 RMK A01 T02670111  RH  038%=      5-min Rain = 0
KEA1 121310Z 16009KT 27/11 A3009 RMK A01 T02670111  RH  038%=      5-min Rain = 0
KEA1 121311Z 16008KT 27/11 A3009 RMK A01 T02670112  RH  038%=      5-min Rain = 0
KEA1 121312Z 16008KT 27/11 A3009 RMK A01 T02670113  RH  038%=      5-min Rain = 0
KEA1 121313Z 16009KT 27/11 A3009 RMK A01 T02670113  RH  038%=      5-min Rain = 0
KEA1 121314Z 15008KT 27/11 A3009 RMK A01 T02670113  RH  038%=      5-min Rain = 0
KEA1 121315Z 16009KT 27/11 A3009 RMK A01 T02670113  RH  038%=      5-min Rain = 0
KEA1 121316Z 16009KT 27/11 A3009 RMK A01 T02670113  RH  038%=      5-min Rain = 0
KEA1 121317Z 16009KT 27/11 A3009 RMK A01 T02670113  RH  038%=      5-min Rain = 0
KEA1 121318Z 16010KT 27/11 A3009 RMK A01 T02680114  RH  038%=      5-min Rain = 0
KEA1 121319Z 16010KT 27/11 A3009 RMK A01 T02690113  RH  038%=      5-min Rain = 0
KEA1 121320Z 16009KT 27/11 A3009 RMK A01 T02700113  RH  038%=      5-min Rain = 0
KEA1 121321Z 16011KT 27/11 A3009 RMK A01 T02700114  RH  038%=      5-min Rain = 0
KEA1 121322Z 16011KT 27/11 A3009 RMK A01 T02710114  RH  038%=      5-min Rain = 0
KEA1 121323Z 16010KT 27/12 A3009 RMK A01 T02710115  RH  038%=      5-min Rain = 0
KEA1 121324Z 16011KT 27/11 A3009 RMK A01 T02710114  RH  037%=      5-min Rain = 0
KEA1 121325Z 16010KT 27/11 A3009 RMK A01 T02720114  RH  037%=      5-min Rain = 0
KEA1 121326Z 16010KT 27/12 A3009 RMK A01 T02710116  RH  038%=      5-min Rain = 0
KEA1 121327Z 16010KT 27/12 A3009 RMK A01 T02720116  RH  038%=      5-min Rain = 0
KEA1 121328Z 16010KT 27/12 A3009 RMK A01 T02720116  RH  038%=      5-min Rain = 0
KEA1 121329Z 16009KT 27/12 A3009 RMK A01 T02730116  RH  038%=      5-min Rain = 0
KEA1 121330Z 16010KT 27/12 A3009 RMK A01 T02730116  RH  038%=      5-min Rain = 0
KEA1 121331Z 16008KT 27/12 A3009 RMK A01 T02730116  RH  037%=      5-min Rain = 0
KEA1 121332Z 16008KT 27/12 A3009 RMK A01 T02730116  RH  038%=      5-min Rain = 0
KEA1 121333Z 16009KT 27/12 A3009 RMK A01 T02740117  RH  038%=      5-min Rain = 0
KEA1 121334Z 16010KT 27/12 A3009 RMK A01 T02740116  RH  038%=      5-min Rain = 0
KEA1 121335Z 16010KT 27/12 A301 RMK A01 T02740117  RH  038%=      5-min Rain = 0
KEA1 121336Z 16010KT 27/12 A301 RMK A01 T02740117  RH  038%=      5-min Rain = 0
KEA1 121337Z 16010KT 27/12 A3009 RMK A01 T02740117  RH  038%=      5-min Rain = 0
KEA1 121338Z 16010KT 27/12 A3009 RMK A01 T02740117  RH  038%=      5-min Rain = 0
KEA1 121339Z 16010KT 27/12 A3009 RMK A01 T02730117  RH  038%=      5-min Rain = 0
KEA1 121340Z 16009KT 27/12 A3009 RMK A01 T02730118  RH  038%=      5-min Rain = 0
KEA1 121341Z 17010KT 27/12 A3009 RMK A01 T02740118  RH  038%=      5-min Rain = 0
KEA1 121342Z 16011KT 27/12 A3009 RMK A01 T02740117  RH  038%=      5-min Rain = 0
KEA1 121343Z 17012KT 27/12 A3009 RMK A01 T02740118  RH  038%=      5-min Rain = 0
KEA1 121344Z 17010KT 27/12 A3009 RMK A01 T02740117  RH  038%=      5-min Rain = 0
KEA1 121345Z 17010KT 28/12 A301 RMK A01 T02750118  RH  038%=      5-min Rain = 0
KEA1 121346Z 17011KT 28/12 A301 RMK A01 T02750117  RH  037%=      5-min Rain = 0
KEA1 121347Z 17009KT 28/12 A301 RMK A01 T02750117  RH  037%=      5-min Rain = 0
KEA1 121348Z 17008KT 28/12 A301 RMK A01 T02760117  RH  037%=      5-min Rain = 0
KEA1 121349Z 18008KT 28/12 A301 RMK A01 T02770117  RH  037%=      5-min Rain = 0
KEA1 121350Z 18007KT 28/12 A301 RMK A01 T02780119  RH  037%=      5-min Rain = 0
KEA1 121351Z 18008KT 28/12 A301 RMK A01 T02790119  RH  037%=      5-min Rain = 0
KEA1 121352Z 18008KT 28/12 A301 RMK A01 T02790117  RH  037%=      5-min Rain = 0
KEA1 121353Z 19007KT 28/12 A3011 RMK A01 T02790117  RH  037%=      5-min Rain = 0
KEA1 121354Z 19006KT 28/12 A3011 RMK A01 T02800118  RH  037%=      5-min Rain = 0
KEA1 121355Z 18007KT 28/12 A3011 RMK A01 T02800116  RH  036%=      5-min Rain = 0
KEA1 121356Z 19006KT 28/12 A3011 RMK A01 T02810118  RH  036%=      5-min Rain = 0
KEA1 121357Z 18006KT 28/12 A3011 RMK A01 T02820117  RH  036%=      5-min Rain = 0
KEA1 121358Z 18007KT 28/12 A3011 RMK A01 T02830117  RH  036%=      5-min Rain = 0
KEA1 121359Z 18006KT 28/12 A3011 RMK A01 T02830116  RH  035%=      5-min Rain = 0
KEA1 121400Z 17005KT 28/12 A3011 RMK A01 T02830116  RH  035%=      5-min Rain = 0
KEA1 121401Z 17006KT 28/12 A3011 RMK A01 T02840116  RH  035%=      5-min Rain = 0
KEA1 121402Z 17008KT 29/11 A3011 RMK A01 T02850114  RH  035%=      5-min Rain = 0
KEA1 121403Z 17007KT 29/11 A3011 RMK A01 T02860114  RH  035%=      5-min Rain = 0
KEA1 121404Z 17007KT 29/12 A3011 RMK A01 T02860116  RH  035%=      5-min Rain = 0
KEA1 121405Z 17005KT 29/12 A3011 RMK A01 T02870116  RH  034%=      5-min Rain = 0
KEA1 121406Z 16006KT 29/12 A3011 RMK A01 T02880115  RH  034%=      5-min Rain = 0
KEA1 121407Z 17005KT 29/12 A3011 RMK A01 T02890116  RH  034%=      5-min Rain = 0
KEA1 121408Z 16007KT 29/12 A3011 RMK A01 T02900117  RH  034%=      5-min Rain = 0
KEA1 121409Z 16006KT 29/12 A3011 RMK A01 T02920117  RH  034%=      5-min Rain = 0
KEA1 121410Z 16006KT 29/12 A3011 RMK A01 T02930116  RH  033%=      5-min Rain = 0
KEA1 121411Z 16005KT 29/12 A3011 RMK A01 T02930116  RH  033%=      5-min Rain = 0
KEA1 121412Z 15006KT 29/12 A3011 RMK A01 T02940116  RH  033%=      5-min Rain = 0
KEA1 121413Z 15005KT 30/12 A3011 RMK A01 T02950116  RH  033%=      5-min Rain = 0
KEA1 121414Z 14007KT 30/12 A3011 RMK A01 T02960116  RH  033%=      5-min Rain = 0
KEA1 121415Z 15006KT 30/12 A3011 RMK A01 T02960116  RH  033%=      5-min Rain = 0
KEA1 121416Z 15008KT 30/12 A3011 RMK A01 T02970117  RH  033%=      5-min Rain = 0
KEA1 121417Z 14008KT 30/11 A3011 RMK A01 T02980114  RH  032%=      5-min Rain = 0
KEA1 121418Z 15006KT 30/12 A3011 RMK A01 T02980116  RH  033%=      5-min Rain = 0
KEA1 121419Z 15005KT 30/12 A3011 RMK A01 T02980116  RH  033%=      5-min Rain = 0
KEA1 121420Z 14006KT 30/12 A3011 RMK A01 T02980116  RH  033%=      5-min Rain = 0
KEA1 121421Z 14004KT 30/12 A3011 RMK A01 T02990115  RH  032%=      5-min Rain = 0
KEA1 121422Z 16004KT 30/12 A3011 RMK A01 T03000117  RH  032%=      5-min Rain = 0
KEA1 121423Z 17005KT 30/12 A3011 RMK A01 T03020118  RH  032%=      5-min Rain = 0
KEA1 121424Z 14007KT 30/12 A3011 RMK A01 T03040119  RH  032%=      5-min Rain = 0
KEA1 121425Z 15008KT 31/12 A3011 RMK A01 T03050116  RH  031%=      5-min Rain = 0
KEA1 121426Z 16008KT 31/12 A3011 RMK A01 T03060117  RH  031%=      5-min Rain = 0
KEA1 121427Z 15008KT 31/12 A3011 RMK A01 T03060117  RH  031%=      5-min Rain = 0
KEA1 121428Z 14008KT 31/11 A3011 RMK A01 T03060114  RH  031%=      5-min Rain = 0
KEA1 121429Z 14007KT 31/12 A3011 RMK A01 T03050116  RH  031%=      5-min Rain = 0
KEA1 121430Z 15008KT 31/12 A3011 RMK A01 T03070117  RH  031%=      5-min Rain = 0
KEA1 121431Z 16008KT 31/12 A3011 RMK A01 T03080116  RH  031%=      5-min Rain = 0
KEA1 121432Z 16009KT 31/12 A3011 RMK A01 T03090117  RH  031%=      5-min Rain = 0
KEA1 121433Z 15009KT 31/12 A3011 RMK A01 T03090115  RH  030%=      5-min Rain = 0
KEA1 121434Z 15010KT 31/12 A3011 RMK A01 T03090116  RH  031%=      5-min Rain = 0
KEA1 121435Z 15011KT 31/12 A3011 RMK A01 T03090115  RH  030%=      5-min Rain = 0
KEA1 121436Z 15009KT 31/12 A3011 RMK A01 T03070115  RH  031%=      5-min Rain = 0
KEA1 121437Z 17009KT 31/12 A3011 RMK A01 T03070117  RH  031%=      5-min Rain = 0
KEA1 121438Z 17009KT 31/11 A3011 RMK A01 T03090114  RH  030%=      5-min Rain = 0
KEA1 121439Z 16008KT 31/12 A3011 RMK A01 T03090116  RH  030%=      5-min Rain = 0
KEA1 121440Z 16008KT 31/12 A3011 RMK A01 T03100116  RH  030%=      5-min Rain = 0
KEA1 121441Z 15006KT 31/12 A3011 RMK A01 T03120118  RH  030%=      5-min Rain = 0
KEA1 121442Z 17010KT 32/12 A3011 RMK A01 T03150118  RH  030%=      5-min Rain = 0
KEA1 121443Z 16009KT 32/12 A3011 RMK A01 T03160117  RH  030%=      5-min Rain = 0
KEA1 121444Z 14010G15KT 32/12 A3011 RMK A01 T03170118  RH  029%=      5-min Rain = 0
KEA1 121445Z 15014KT 32/12 A3011 RMK A01 T03170115  RH  029%=      5-min Rain = 0
KEA1 121446Z 16013KT 31/11 A3012 RMK A01 T03140114  RH  029%=      5-min Rain = 0
KEA1 121447Z 14012KT 31/12 A3012 RMK A01 T03120116  RH  030%=      5-min Rain = 0
KEA1 121448Z 14014KT 31/12 A3012 RMK A01 T03140115  RH  030%=      5-min Rain = 0
KEA1 121449Z 14015KT 32/12 A3012 RMK A01 T03150115  RH  029%=      5-min Rain = 0
KEA1 121450Z 13018KT 31/12 A3012 RMK A01 T03140115  RH  029%=      5-min Rain = 0
KEA1 121451Z 14014KT 32/12 A3012 RMK A01 T03150115  RH  029%=      5-min Rain = 0
KEA1 121452Z 13013KT 32/12 A3012 RMK A01 T03160117  RH  029%=      5-min Rain = 0
KEA1 121453Z 13017KT 32/12 A3012 RMK A01 T03190118  RH  029%=      5-min Rain = 0
KEA1 121454Z 13019KT 32/12 A3012 RMK A01 T03190115  RH  029%=      5-min Rain = 0
KEA1 121455Z 14018KT 32/11 A3012 RMK A01 T03150114  RH  029%=      5-min Rain = 0
KEA1 121456Z 13020KT 31/11 A3012 RMK A01 T03130114  RH  029%=      5-min Rain = 0
KEA1 121457Z 13018KT 31/11 A3012 RMK A01 T03110112  RH  029%=      5-min Rain = 0
KEA1 121458Z 15014G19KT 31/11 A3012 RMK A01 T03090112  RH  030%=      5-min Rain = 0
KEA1 121459Z 14013KT 31/11 A3012 RMK A01 T03090113  RH  030%=      5-min Rain = 0
KEA1 121500Z 15012KT 31/11 A3012 RMK A01 T03090114  RH  030%=      5-min Rain = 0
KEA1 121501Z 15016KT 31/12 A3011 RMK A01 T03130116  RH  030%=      5-min Rain = 0
KEA1 121502Z 14015KT 31/11 A3011 RMK A01 T03140114  RH  029%=      5-min Rain = 0
KEA1 121503Z 14015G20KT 31/12 A3011 RMK A01 T03140115  RH  029%=      5-min Rain = 0
KEA1 121504Z 14017KT 32/12 A3012 RMK A01 T03170115  RH  029%=      5-min Rain = 0
KEA1 121505Z 14017KT 32/12 A3012 RMK A01 T03160115  RH  029%=      5-min Rain = 0
KEA1 121506Z 13015G20KT 32/12 A3012 RMK A01 T03160117  RH  029%=      5-min Rain = 0
KEA1 121507Z 12018KT 32/12 A3012 RMK A01 T03170117  RH  029%=      5-min Rain = 0
KEA1 121508Z 13017G24KT 32/12 A3012 RMK A01 T03180116  RH  029%=      5-min Rain = 0
KEA1 121509Z 14017G22KT 32/12 A3012 RMK A01 T03170116  RH  029%=      5-min Rain = 0
KEA1 121510Z 14017KT 32/12 A3011 RMK A01 T03170115  RH  029%=      5-min Rain = 0
KEA1 121511Z 14019G24KT 32/12 A3011 RMK A01 T03170116  RH  029%=      5-min Rain = 0
KEA1 121512Z 14018G23KT 32/11 A3011 RMK A01 T03160114  RH  029%=      5-min Rain = 0
KEA1 121513Z 16018G23KT 32/11 A3011 RMK A01 T03160114  RH  029%=      5-min Rain = 0
KEA1 121514Z 15019KT 32/11 A301 RMK A01 T03170113  RH  029%=      5-min Rain = 0
KEA1 121515Z 15014KT 32/11 A301 RMK A01 T03180114  RH  029%=      5-min Rain = 0
KEA1 121516Z 15016KT 32/11 A301 RMK A01 T03180114  RH  029%=      5-min Rain = 0
KEA1 121517Z 16017G23KT 32/12 A301 RMK A01 T03190115  RH  029%=      5-min Rain = 0
KEA1 121518Z 15019KT 32/11 A301 RMK A01 T03190113  RH  028%=      5-min Rain = 0
KEA1 121519Z 16016KT 32/11 A301 RMK A01 T03180114  RH  029%=      5-min Rain = 0
KEA1 121520Z 16018G24KT 32/11 A301 RMK A01 T03180114  RH  029%=      5-min Rain = 0
KEA1 121521Z 15021KT 32/11 A301 RMK A01 T03180113  RH  028%=      5-min Rain = 0
KEA1 121522Z 16017KT 32/11 A301 RMK A01 T03170113  RH  028%=      5-min Rain = 0
KEA1 121523Z 15019KT 32/11 A301 RMK A01 T03180114  RH  029%=      5-min Rain = 0
KEA1 121524Z 16020G25KT 32/11 A301 RMK A01 T03200113  RH  028%=      5-min Rain = 0
KEA1 121525Z 15020KT 32/11 A301 RMK A01 T03190113  RH  028%=      5-min Rain = 0
KEA1 121526Z 16021KT 32/11 A301 RMK A01 T03190113  RH  028%=      5-min Rain = 0
KEA1 121527Z 15019KT 32/11 A301 RMK A01 T03190114  RH  028%=      5-min Rain = 0
KEA1 121528Z 16019KT 32/11 A301 RMK A01 T03210114  RH  028%=      5-min Rain = 0
KEA1 121529Z 16018KT 32/11 A301 RMK A01 T03220114  RH  028%=      5-min Rain = 0
KEA1 121530Z 16019G24KT 32/11 A3009 RMK A01 T03210114  RH  028%=      5-min Rain = 0
KEA1 121531Z 16019G24KT 32/11 A3009 RMK A01 T03210114  RH  028%=      5-min Rain = 0
KEA1 121532Z 16019G24KT 32/12 A3009 RMK A01 T03210115  RH  028%=      5-min Rain = 0
KEA1 121533Z 15021KT 32/11 A3009 RMK A01 T03200114  RH  028%=      5-min Rain = 0
KEA1 121534Z 15018KT 32/12 A3009 RMK A01 T03180115  RH  029%=      5-min Rain = 0
KEA1 121535Z 16016KT 32/12 A3009 RMK A01 T03180116  RH  029%=      5-min Rain = 0
KEA1 121536Z 17019KT 32/12 A3009 RMK A01 T03190116  RH  029%=      5-min Rain = 0
KEA1 121537Z 16019KT 32/12 A3009 RMK A01 T03200116  RH  029%=      5-min Rain = 0
KEA1 121538Z 16020KT 32/12 A3009 RMK A01 T03230116  RH  028%=      5-min Rain = 0
KEA1 121539Z 16023KT 32/12 A3009 RMK A01 T03200115  RH  029%=      5-min Rain = 0
KEA1 121540Z 15024KT 32/11 A3009 RMK A01 T03160114  RH  029%=      5-min Rain = 0
KEA1 121541Z 16022KT 32/12 A3008 RMK A01 T03180115  RH  029%=      5-min Rain = 0
KEA1 121542Z 16023KT 32/12 A3008 RMK A01 T03200116  RH  029%=      5-min Rain = 0
KEA1 121543Z 15021KT 32/12 A3009 RMK A01 T03210115  RH  028%=      5-min Rain = 0
KEA1 121544Z 16021G26KT 32/11 A3008 RMK A01 T03220114  RH  028%=      5-min Rain = 0
KEA1 121545Z 17021KT 32/11 A3008 RMK A01 T03220114  RH  028%=      5-min Rain = 0
KEA1 121546Z 17018KT 32/12 A3008 RMK A01 T03220116  RH  028%=      5-min Rain = 0
KEA1 121547Z 16022KT 33/12 A3008 RMK A01 T03260116  RH  028%=      5-min Rain = 0
KEA1 121548Z 16022KT 33/12 A3008 RMK A01 T03260115  RH  028%=      5-min Rain = 0
KEA1 121549Z 17022G27KT 32/12 A3008 RMK A01 T03230115  RH  028%=      5-min Rain = 0
KEA1 121550Z 17020KT 32/12 A3008 RMK A01 T03220117  RH  028%=      5-min Rain = 0
KEA1 121551Z 17021KT 33/12 A3008 RMK A01 T03250118  RH  028%=      5-min Rain = 0
KEA1 121552Z 17021KT 33/12 A3008 RMK A01 T03250116  RH  028%=      5-min Rain = 0
KEA1 121553Z 16021KT 33/12 A3008 RMK A01 T03250116  RH  028%=      5-min Rain = 0
KEA1 121554Z 17022KT 32/12 A3008 RMK A01 T03240115  RH  028%=      5-min Rain = 0
KEA1 121555Z 17024KT 32/12 A3008 RMK A01 T03240115  RH  028%=      5-min Rain = 0
KEA1 121556Z 17024KT 32/11 A3008 RMK A01 T03230114  RH  028%=      5-min Rain = 0
KEA1 121557Z 16022KT 32/11 A3008 RMK A01 T03220114  RH  028%=      5-min Rain = 0
KEA1 121558Z 16017KT 32/12 A3009 RMK A01 T03240116  RH  028%=      5-min Rain = 0
KEA1 121559Z 16016G21KT 33/12 A3009 RMK A01 T03290118  RH  028%=      5-min Rain = 0
KEA1 121600Z 16021KT 33/12 A3009 RMK A01 T03310117  RH  027%=      5-min Rain = 0
KEA1 121601Z 17018G23KT 33/12 A3009 RMK A01 T03290118  RH  028%=      5-min Rain = 0
KEA1 121602Z 17018KT 33/12 A3009 RMK A01 T03290118  RH  028%=      5-min Rain = 0
KEA1 121603Z 16020G25KT 33/12 A3008 RMK A01 T03280118  RH  028%=      5-min Rain = 0
KEA1 121604Z 17017KT 33/12 A3008 RMK A01 T03290119  RH  028%=      5-min Rain = 0
KEA1 121605Z 17019KT 33/12 A3008 RMK A01 T03310118  RH  027%=      5-min Rain = 0
KEA1 121606Z 17019KT 33/12 A3008 RMK A01 T03300115  RH  027%=      5-min Rain = 0
KEA1 121607Z 16017G23KT 33/12 A3008 RMK A01 T03310117  RH  027%=      5-min Rain = 0
KEA1 121608Z 16023KT 33/12 A3008 RMK A01 T03330116  RH  027%=      5-min Rain = 0
KEA1 121609Z 17020G25KT 33/12 A3008 RMK A01 T03310115  RH  027%=      5-min Rain = 0
KEA1 121610Z 18021KT 33/12 A3008 RMK A01 T03310117  RH  027%=      5-min Rain = 0
KEA1 121611Z 18018KT 33/12 A3008 RMK A01 T03320117  RH  027%=      5-min Rain = 0
KEA1 121612Z 17018KT 33/12 A3008 RMK A01 T03340119  RH  027%=      5-min Rain = 0
KEA1 121613Z 16020G25KT 34/12 A3008 RMK A01 T03370118  RH  026%=      5-min Rain = 0
KEA1 121614Z 16021KT 34/12 A3008 RMK A01 T03360116  RH  026%=      5-min Rain = 0
KEA1 121615Z 16019KT 34/12 A3008 RMK A01 T03350117  RH  027%=      5-min Rain = 0
KEA1 121616Z 17018KT 34/12 A3008 RMK A01 T03360117  RH  026%=      5-min Rain = 0
KEA1 121617Z 17022KT 34/12 A3008 RMK A01 T03360116  RH  026%=      5-min Rain = 0
KEA1 121618Z 17022KT 34/11 A3008 RMK A01 T03370113  RH  026%=      5-min Rain = 0
KEA1 121619Z 17020G25KT 34/11 A3008 RMK A01 T03350114  RH  026%=      5-min Rain = 0
KEA1 121620Z 17018KT 33/12 A3008 RMK A01 T03340116  RH  027%=      5-min Rain = 0
KEA1 121621Z 16020KT 34/11 A3008 RMK A01 T03360114  RH  026%=      5-min Rain = 0
KEA1 121622Z 16021KT 34/11 A3008 RMK A01 T03380114  RH  026%=      5-min Rain = 0
KEA1 121623Z 17020KT 34/12 A3008 RMK A01 T03390116  RH  026%=      5-min Rain = 0
KEA1 121624Z 18020G27KT 34/12 A3008 RMK A01 T03390115  RH  026%=      5-min Rain = 0
KEA1 121625Z 18023KT 34/11 A3008 RMK A01 T03400113  RH  025%=      5-min Rain = 0
KEA1 121626Z 18021KT 34/11 A3008 RMK A01 T03370114  RH  026%=      5-min Rain = 0
KEA1 121627Z 17019KT 34/12 A3008 RMK A01 T03360117  RH  026%=      5-min Rain = 0
KEA1 121628Z 16022KT 34/12 A3008 RMK A01 T03350117  RH  026%=      5-min Rain = 0
KEA1 121629Z 16019KT 33/12 A3008 RMK A01 T03340116  RH  026%=      5-min Rain = 0
KEA1 121630Z 16019G24KT 34/12 A3008 RMK A01 T03380117  RH  026%=      5-min Rain = 0
KEA1 121631Z 16018KT 34/12 A3008 RMK A01 T03400119  RH  026%=      5-min Rain = 0
KEA1 121632Z 16018KT 34/12 A3008 RMK A01 T03400120  RH  026%=      5-min Rain = 0
KEA1 121633Z 16019KT 34/12 A3008 RMK A01 T03420118  RH  026%=      5-min Rain = 0
KEA1 121634Z 16019G24KT 34/12 A3008 RMK A01 T03430117  RH  025%=      5-min Rain = 0
KEA1 121635Z 15021KT 34/12 A3008 RMK A01 T03440118  RH  025%=      5-min Rain = 0
KEA1 121636Z 16019G24KT 34/12 A3008 RMK A01 T03420116  RH  025%=      5-min Rain = 0
KEA1 121637Z 16020KT 34/12 A3008 RMK A01 T03430117  RH  025%=      5-min Rain = 0
KEA1 121638Z 16016G21KT 35/12 A3008 RMK A01 T03450118  RH  025%=      5-min Rain = 0
KEA1 121639Z 16017KT 35/12 A3008 RMK A01 T03510119  RH  025%=      5-min Rain = 0
KEA1 121640Z 17019KT 35/12 A3008 RMK A01 T03500117  RH  024%=      5-min Rain = 0
KEA1 121641Z 17018KT 35/12 A3008 RMK A01 T03450118  RH  025%=      5-min Rain = 0
KEA1 121642Z 16017KT 35/12 A3008 RMK A01 T03460117  RH  025%=      5-min Rain = 0
KEA1 121643Z 16019G24KT 35/12 A3008 RMK A01 T03460117  RH  025%=      5-min Rain = 0
KEA1 121644Z 17022KT 35/12 A3007 RMK A01 T03480117  RH  025%=      5-min Rain = 0
KEA1 121645Z 17022KT 35/12 A3007 RMK A01 T03460116  RH  025%=      5-min Rain = 0
KEA1 121646Z 17020G25KT 35/12 A3008 RMK A01 T03460115  RH  025%=      5-min Rain = 0
KEA1 121647Z 18023KT 35/12 A3007 RMK A01 T03470116  RH  025%=      5-min Rain = 0
KEA1 121648Z 17019KT 35/12 A3007 RMK A01 T03470116  RH  025%=      5-min Rain = 0
KEA1 121649Z 18018KT 35/12 A3007 RMK A01 T03480117  RH  025%=      5-min Rain = 0
KEA1 121650Z 18018KT 35/12 A3007 RMK A01 T03520116  RH  024%=      5-min Rain = 0
KEA1 121651Z 18020KT 35/12 A3007 RMK A01 T03530115  RH  024%=      5-min Rain = 0
KEA1 121652Z 18020KT 35/12 A3007 RMK A01 T03510116  RH  024%=      5-min Rain = 0
KEA1 121653Z 18020KT 35/11 A3007 RMK A01 T03510113  RH  024%=      5-min Rain = 0
KEA1 121654Z 18018KT 35/12 A3007 RMK A01 T03540115  RH  024%=      5-min Rain = 0
KEA1 121655Z 17019KT 36/11 A3007 RMK A01 T03560114  RH  023%=      5-min Rain = 0
KEA1 121656Z 16020KT 36/11 A3007 RMK A01 T03570114  RH  023%=      5-min Rain = 0
KEA1 121657Z 16019KT 36/11 A3007 RMK A01 T03560113  RH  023%=      5-min Rain = 0
KEA1 121658Z 17022KT 36/11 A3007 RMK A01 T03560114  RH  023%=      5-min Rain = 0
KEA1 121659Z 16018KT 36/12 A3007 RMK A01 T03560116  RH  024%=      5-min Rain = 0
KEA1 121700Z 17022KT 36/12 A3006 RMK A01 T03570115  RH  023%=      5-min Rain = 0
KEA1 121701Z 17018G23KT 36/11 A3007 RMK A01 T03580113  RH  023%=      5-min Rain = 0
KEA1 121702Z 18020KT 36/11 A3006 RMK A01 T03580113  RH  023%=      5-min Rain = 0
KEA1 121703Z 16017G22KT 36/12 A3006 RMK A01 T03570116  RH  023%=      5-min Rain = 0
KEA1 121704Z 17021KT 36/12 A3006 RMK A01 T03590115  RH  023%=      5-min Rain = 0
KEA1 121705Z 18019KT 36/12 A3006 RMK A01 T03580115  RH  023%=      5-min Rain = 0
KEA1 121706Z 18017KT 36/12 A3006 RMK A01 T03570115  RH  023%=      5-min Rain = 0
KEA1 121707Z 17018KT 36/12 A3006 RMK A01 T03610117  RH  023%=      5-min Rain = 0
KEA1 121708Z 18019KT 37/12 A3006 RMK A01 T03650115  RH  022%=      5-min Rain = 0
KEA1 121709Z 18022KT 37/11 A3006 RMK A01 T03650112  RH  022%=      5-min Rain = 0
KEA1 121710Z 17022KT 36/11 A3006 RMK A01 T03630110  RH  022%=      5-min Rain = 0
KEA1 121711Z 17022KT 36/11 A3006 RMK A01 T03640108  RH  021%=      5-min Rain = 0
KEA1 121712Z 16021G26KT 36/11 A3006 RMK A01 T03640108  RH  021%=      5-min Rain = 0
KEA1 121713Z 16022KT 36/11 A3006 RMK A01 T03640108  RH  021%=      5-min Rain = 0
KEA1 121714Z 16021KT 36/10 A3006 RMK A01 T03630101  RH  020%=      5-min Rain = 0
KEA1 121715Z 16018KT 37/11 A3006 RMK A01 T03670107  RH  021%=      5-min Rain = 0
KEA1 121716Z 16019KT 37/11 A3006 RMK A01 T03710106  RH  020%=      5-min Rain = 0
KEA1 121717Z 17021KT 37/11 A3006 RMK A01 T03720107  RH  020%=      5-min Rain = 0
KEA1 121718Z 17016KT 37/11 A3006 RMK A01 T03720105  RH  020%=      5-min Rain = 0
KEA1 121719Z 16019G24KT 37/10 A3006 RMK A01 T03730104  RH  020%=      5-min Rain = 0
KEA1 121720Z 16024G29KT 37/10 A3006 RMK A01 T03730100  RH  019%=      5-min Rain = 0
KEA1 121721Z 17022G27KT 37/10 A3006 RMK A01 T03720096  RH  019%=      5-min Rain = 0
KEA1 121722Z 17023KT 37/09 A3006 RMK A01 T03680092  RH  019%=      5-min Rain = 0
KEA1 121723Z 17018KT 37/10 A3006 RMK A01 T03660100  RH  020%=      5-min Rain = 0
KEA1 121724Z 17023KT 37/09 A3006 RMK A01 T03690090  RH  018%=      5-min Rain = 0
KEA1 121725Z 17022KT 37/09 A3006 RMK A01 T03680090  RH  018%=      5-min Rain = 0
KEA1 121726Z 17019KT 37/10 A3006 RMK A01 T03670097  RH  020%=      5-min Rain = 0
KEA1 121727Z 16021G26KT 37/09 A3006 RMK A01 T03680093  RH  019%=      5-min Rain = 0
KEA1 121728Z 17019KT 37/09 A3006 RMK A01 T03700092  RH  018%=      5-min Rain = 0
KEA1 121729Z 18024KT 37/09 A3005 RMK A01 T03730092  RH  018%=      5-min Rain = 0
KEA1 121730Z 16019G25KT 37/09 A3006 RMK A01 T03730085  RH  017%=      5-min Rain = 0
KEA1 121731Z 16021KT 37/09 A3006 RMK A01 T03740087  RH  018%=      5-min Rain = 0
KEA1 121732Z 17020KT 37/09 A3005 RMK A01 T03740086  RH  017%=      5-min Rain = 0
KEA1 121733Z 16021G26KT 38/09 A3005 RMK A01 T03760088  RH  017%=      5-min Rain = 0
KEA1 121734Z 15019G25KT 38/09 A3006 RMK A01 T03760093  RH  018%=      5-min Rain = 0
KEA1 121735Z 17024KT 38/09 A3005 RMK A01 T03770091  RH  018%=      5-min Rain = 0
KEA1 121736Z 18019KT 38/09 A3005 RMK A01 T03770091  RH  018%=      5-min Rain = 0
KEA1 121737Z 18017KT 38/09 A3005 RMK A01 T03770091  RH  018%=      5-min Rain = 0
KEA1 121738Z 17020G25KT 38/09 A3005 RMK A01 T03770089  RH  018%=      5-min Rain = 0
KEA1 121739Z 17020G25KT 38/09 A3005 RMK A01 T03770091  RH  018%=      5-min Rain = 0
KEA1 121740Z 16022G27KT 38/09 A3005 RMK A01 T03790090  RH  017%=      5-min Rain = 0
KEA1 121741Z 16024KT 38/09 A3005 RMK A01 T03780088  RH  017%=      5-min Rain = 0
KEA1 121742Z 16021G26KT 38/09 A3005 RMK A01 T03760087  RH  017%=      5-min Rain = 0
KEA1 121743Z 17021KT 38/09 A3005 RMK A01 T03750089  RH  018%=      5-min Rain = 0
KEA1 121744Z 18020G25KT 38/09 A3005 RMK A01 T03760089  RH  018%=      5-min Rain = 0
KEA1 121745Z 17018KT 38/09 A3005 RMK A01 T03770091  RH  018%=      5-min Rain = 0
KEA1 121746Z 18019KT 38/09 A3005 RMK A01 T03800092  RH  018%=      5-min Rain = 0
KEA1 121747Z 18020G25KT 38/09 A3005 RMK A01 T03820093  RH  018%=      5-min Rain = 0
KEA1 121748Z 17017KT 38/10 A3005 RMK A01 T03820097  RH  018%=      5-min Rain = 0
KEA1 121749Z 17020KT 39/09 A3005 RMK A01 T03850094  RH  017%=      5-min Rain = 0
KEA1 121750Z 17021KT 39/09 A3005 RMK A01 T03850089  RH  017%=      5-min Rain = 0
KEA1 121751Z 17016KT 38/08 A3005 RMK A01 T03830080  RH  016%=      5-min Rain = 0
KEA1 121752Z 17018G24KT 38/08 A3005 RMK A01 T03840084  RH  016%=      5-min Rain = 0
KEA1 121753Z 17020G26KT 39/08 A3005 RMK A01 T03880080  RH  015%=      5-min Rain = 0
KEA1 121754Z 17018G23KT 39/08 A3005 RMK A01 T03880082  RH  016%=      5-min Rain = 0
KEA1 121755Z 17022KT 39/08 A3005 RMK A01 T03870081  RH  016%=      5-min Rain = 0
KEA1 121756Z 16017KT 39/08 A3005 RMK A01 T03850078  RH  016%=      5-min Rain = 0
KEA1 121757Z 16019G24KT 39/08 A3005 RMK A01 T03850083  RH  016%=      5-min Rain = 0
KEA1 121758Z 17022G27KT 38/09 A3004 RMK A01 T03840086  RH  017%=      5-min Rain = 0
KEA1 121759Z 18020G25KT 38/08 A3005 RMK A01 T03830081  RH  016%=      5-min Rain = 0
KEA1 121800Z 18019KT 39/07 A3005 RMK A01 T03870073  RH  015%=      5-min Rain = 0
KEA1 121801Z 19022KT 39/08 A3004 RMK A01 T03850078  RH  015%=      5-min Rain = 0
KEA1 121802Z 19018KT 39/08 A3005 RMK A01 T03880075  RH  015%=      5-min Rain = 0
KEA1 121803Z 19023G32KT 39/07 A3004 RMK A01 T03900069  RH  014%=      5-min Rain = 0
KEA1 121804Z 18025G31KT 39/07 A3004 RMK A01 T03890066  RH  014%=      5-min Rain = 0
KEA1 121805Z 17021G26KT 39/07 A3004 RMK A01 T03870067  RH  014%=      5-min Rain = 0
KEA1 121806Z 18024G29KT 39/07 A3004 RMK A01 T03890068  RH  014%=      5-min Rain = 0
KEA1 121807Z 19022G27KT 39/07 A3004 RMK A01 T03880067  RH  014%=      5-min Rain = 0
KEA1 121808Z 18019KT 39/07 A3004 RMK A01 T03870069  RH  014%=      5-min Rain = 0
KEA1 121809Z 17024KT 39/07 A3004 RMK A01 T03900070  RH  014%=      5-min Rain = 0
KEA1 121810Z 18022G29KT 39/07 A3004 RMK A01 T03880068  RH  014%=      5-min Rain = 0
KEA1 121811Z 19022KT 39/07 A3004 RMK A01 T03880070  RH  014%=      5-min Rain = 0
KEA1 121812Z 17021G27KT 39/07 A3004 RMK A01 T03890069  RH  014%=      5-min Rain = 0
KEA1 121813Z 17022G27KT 39/07 A3004 RMK A01 T03900065  RH  014%=      5-min Rain = 0
KEA1 121814Z 18018G25KT 39/07 A3004 RMK A01 T03900067  RH  014%=      5-min Rain = 0
KEA1 121815Z 18025KT 39/07 A3003 RMK A01 T03940073  RH  014%=      5-min Rain = 0
KEA1 121816Z 18019G25KT 39/07 A3004 RMK A01 T03890068  RH  014%=      5-min Rain = 0
KEA1 121817Z 18017KT 39/07 A3004 RMK A01 T03870071  RH  015%=      5-min Rain = 0
KEA1 121818Z 18020KT 39/07 A3004 RMK A01 T03900071  RH  014%=      5-min Rain = 0
KEA1 121819Z 17022KT 39/07 A3004 RMK A01 T03930070  RH  014%=      5-min Rain = 0
KEA1 121820Z 19018G28KT 39/07 A3004 RMK A01 T03910069  RH  014%=      5-min Rain = 0
KEA1 121821Z 19020G25KT 39/07 A3004 RMK A01 T03890069  RH  014%=      5-min Rain = 0
KEA1 121822Z 17022G31KT 39/07 A3004 RMK A01 T03890074  RH  015%=      5-min Rain = 0
KEA1 121823Z 19025KT 39/07 A3003 RMK A01 T03900073  RH  015%=      5-min Rain = 0
KEA1 121824Z 18023G28KT 39/07 A3004 RMK A01 T03880072  RH  015%=      5-min Rain = 0
KEA1 121825Z 17020G26KT 39/07 A3003 RMK A01 T03880071  RH  015%=      5-min Rain = 0
KEA1 121826Z 17020KT 39/07 A3004 RMK A01 T03880074  RH  015%=      5-min Rain = 0
KEA1 121827Z 17017G23KT 39/07 A3004 RMK A01 T03910074  RH  015%=      5-min Rain = 0
KEA1 121828Z 18020KT 39/07 A3003 RMK A01 T03920074  RH  015%=      5-min Rain = 0
KEA1 121829Z 19018G23KT 39/07 A3003 RMK A01 T03870071  RH  015%=      5-min Rain = 0
KEA1 121830Z 19023KT 39/07 A3003 RMK A01 T03870071  RH  015%=      5-min Rain = 0
KEA1 121831Z 18021G26KT 39/07 A3003 RMK A01 T03890068  RH  014%=      5-min Rain = 0
KEA1 121832Z 18018KT 39/07 A3004 RMK A01 T03890068  RH  014%=      5-min Rain = 0
KEA1 121833Z 17020KT 39/07 A3003 RMK A01 T03900069  RH  014%=      5-min Rain = 0
KEA1 121834Z 18022G29KT 39/07 A3003 RMK A01 T03910071  RH  014%=      5-min Rain = 0
KEA1 121835Z 17023G29KT 39/07 A3003 RMK A01 T03920068  RH  014%=      5-min Rain = 0
KEA1 121836Z 16021KT 39/07 A3003 RMK A01 T03880065  RH  014%=      5-min Rain = 0
KEA1 121837Z 16022G27KT 39/07 A3003 RMK A01 T03890067  RH  014%=      5-min Rain = 0
KEA1 121838Z 17023KT 39/07 A3003 RMK A01 T03930069  RH  014%=      5-min Rain = 0
KEA1 121839Z 16020KT 39/07 A3003 RMK A01 T03920068  RH  014%=      5-min Rain = 0
KEA1 121840Z 15020KT 39/07 A3003 RMK A01 T03900067  RH  014%=      5-min Rain = 0
KEA1 121841Z 16019KT 39/07 A3003 RMK A01 T03920066  RH  014%=      5-min Rain = 0
KEA1 121842Z 18021G30KT 39/07 A3003 RMK A01 T03940070  RH  014%=      5-min Rain = 0
KEA1 121843Z 20023KT 40/07 A3003 RMK A01 T04000067  RH  013%=      5-min Rain = 0
KEA1 121844Z 19017KT 39/07 A3003 RMK A01 T03940066  RH  014%=      5-min Rain = 0
KEA1 121845Z 17017G25KT 39/07 A3003 RMK A01 T03940069  RH  014%=      5-min Rain = 0
KEA1 121846Z 18021KT 40/07 A3003 RMK A01 T03970067  RH  014%=      5-min Rain = 0
KEA1 121847Z 18020KT 39/07 A3002 RMK A01 T03940067  RH  014%=      5-min Rain = 0
KEA1 121848Z 17020KT 40/07 A3002 RMK A01 T03950066  RH  014%=      5-min Rain = 0
KEA1 121849Z 17021G26KT 40/07 A3002 RMK A01 T03950068  RH  014%=      5-min Rain = 0
KEA1 121850Z 17020G25KT 40/07 A3002 RMK A01 T03950067  RH  014%=      5-min Rain = 0
KEA1 121851Z 16021G26KT 39/07 A3002 RMK A01 T03940066  RH  014%=      5-min Rain = 0
KEA1 121852Z 18022KT 39/07 A3002 RMK A01 T03940067  RH  014%=      5-min Rain = 0
KEA1 121853Z 19021KT 39/06 A3002 RMK A01 T03940064  RH  013%=      5-min Rain = 0
KEA1 121854Z 18024KT 39/06 A3002 RMK A01 T03930064  RH  013%=      5-min Rain = 0
KEA1 121855Z 19024KT 39/06 A3002 RMK A01 T03930064  RH  013%=      5-min Rain = 0
KEA1 121856Z 19018G24KT 39/06 A3002 RMK A01 T03920064  RH  014%=      5-min Rain = 0
KEA1 121857Z 18015KT 39/07 A3002 RMK A01 T03940068  RH  014%=      5-min Rain = 0
KEA1 121858Z 17018KT 40/07 A3002 RMK A01 T03980071  RH  014%=      5-min Rain = 0
KEA1 121859Z 17019G24KT 40/07 A3002 RMK A01 T04010070  RH  014%=      5-min Rain = 0
KEA1 121900Z 18022G31KT 40/07 A3002 RMK A01 T04010069  RH  013%=      5-min Rain = 0
KEA1 121901Z 17021KT 40/07 A3002 RMK A01 T04000067  RH  013%=      5-min Rain = 0
KEA1 121902Z 18014KT 39/07 A3002 RMK A01 T03930065  RH  014%=      5-min Rain = 0
KEA1 121903Z 19017G24KT 39/07 A3002 RMK A01 T03930068  RH  014%=      5-min Rain = 0
KEA1 121904Z 20022G28KT 40/07 A3001 RMK A01 T03980068  RH  014%=      5-min Rain = 0
KEA1 121905Z 19022KT 40/07 A3001 RMK A01 T03980065  RH  013%=      5-min Rain = 0
KEA1 121906Z 20016KT 39/07 A3002 RMK A01 T03930065  RH  014%=      5-min Rain = 0
KEA1 121907Z 20014KT 40/07 A3002 RMK A01 T03950065  RH  013%=      5-min Rain = 0
KEA1 121908Z 19012G19KT 40/07 A3002 RMK A01 T03950066  RH  014%=      5-min Rain = 0
KEA1 121909Z 17022KT 40/07 A3001 RMK A01 T04000070  RH  014%=      5-min Rain = 0
KEA1 121910Z 19019G25KT 40/07 A3001 RMK A01 T04000066  RH  013%=      5-min Rain = 0
KEA1 121911Z 21017KT 40/07 A3002 RMK A01 T04030072  RH  014%=      5-min Rain = 0
KEA1 121912Z 20018KT 40/07 A3001 RMK A01 T04010068  RH  013%=      5-min Rain = 0
KEA1 121913Z 19019G24KT 40/07 A3001 RMK A01 T04000066  RH  013%=      5-min Rain = 0
KEA1 121914Z 19016KT 40/07 A3001 RMK A01 T03980067  RH  013%=      5-min Rain = 0
KEA1 121915Z 17020KT 40/07 A3001 RMK A01 T03990071  RH  014%=      5-min Rain = 0
KEA1 121916Z 17019KT 40/07 A3001 RMK A01 T03980071  RH  014%=      5-min Rain = 0
KEA1 121917Z 18022KT 40/08 A3001 RMK A01 T03960075  RH  014%=      5-min Rain = 0
KEA1 121918Z 19015G20KT 40/08 A3001 RMK A01 T04010075  RH  014%=      5-min Rain = 0
KEA1 121919Z 19016KT 41/07 A3001 RMK A01 T04080070  RH  013%=      5-min Rain = 0
KEA1 121920Z 20012KT 41/07 A3001 RMK A01 T04060068  RH  013%=      5-min Rain = 0
KEA1 121921Z 19023G28KT 41/07 A3001 RMK A01 T04090069  RH  013%=      5-min Rain = 0
KEA1 121922Z 19024KT 41/07 A30 RMK A01 T04060066  RH  013%=      5-min Rain = 0
KEA1 121923Z 20019G25KT 40/06 A3001 RMK A01 T04020064  RH  013%=      5-min Rain = 0
KEA1 121924Z 19019KT 40/07 A3001 RMK A01 T03980066  RH  013%=      5-min Rain = 0
KEA1 121925Z 19020KT 40/07 A3001 RMK A01 T04010066  RH  013%=      5-min Rain = 0
KEA1 121926Z 19020G25KT 40/07 A30 RMK A01 T03990065  RH  013%=      5-min Rain = 0
KEA1 121927Z 18022KT 40/07 A30 RMK A01 T03980066  RH  013%=      5-min Rain = 0
KEA1 121928Z 18020KT 40/06 A30 RMK A01 T03970064  RH  013%=      5-min Rain = 0
KEA1 121929Z 19019KT 40/07 A3001 RMK A01 T03950067  RH  014%=      5-min Rain = 0
KEA1 121930Z 18016KT 40/07 A3001 RMK A01 T03990071  RH  014%=      5-min Rain = 0
KEA1 121931Z 20017G22KT 40/07 A3001 RMK A01 T04030073  RH  014%=      5-min Rain = 0
KEA1 121932Z 20013KT 41/07 A3001 RMK A01 T04050069  RH  013%=      5-min Rain = 0
KEA1 121933Z 21013KT 40/07 A30 RMK A01 T04040068  RH  013%=      5-min Rain = 0
KEA1 121934Z 20011KT 40/07 A30 RMK A01 T04000067  RH  013%=      5-min Rain = 0
KEA1 121935Z 20015G20KT 40/07 A30 RMK A01 T04000070  RH  014%=      5-min Rain = 0
KEA1 121936Z 19021G27KT 40/07 A30 RMK A01 T04030068  RH  013%=      5-min Rain = 0
KEA1 121937Z 20017KT 40/07 A30 RMK A01 T03990067  RH  013%=      5-min Rain = 0
KEA1 121938Z 18021G27KT 40/07 A30 RMK A01 T04010069  RH  013%=      5-min Rain = 0
KEA1 121939Z 18023G28KT 40/07 A30 RMK A01 T04040068  RH  013%=      5-min Rain = 0
KEA1 121940Z 18022G29KT 40/07 A30 RMK A01 T04020066  RH  013%=      5-min Rain = 0
KEA1 121941Z 19025G33KT 40/07 A2999 RMK A01 T04010068  RH  013%=      5-min Rain = 0
KEA1 121942Z 20021KT 40/07 A30 RMK A01 T04030068  RH  013%=      5-min Rain = 0
KEA1 121943Z 20016KT 40/07 A30 RMK A01 T04010067  RH  013%=      5-min Rain = 0
KEA1 121944Z 19019KT 40/07 A30 RMK A01 T04040069  RH  013%=      5-min Rain = 0
KEA1 121945Z 19015KT 40/07 A30 RMK A01 T04040067  RH  013%=      5-min Rain = 0
KEA1 121946Z 19017G23KT 40/07 A30 RMK A01 T04010067  RH  013%=      5-min Rain = 0
KEA1 121947Z 18019G24KT 40/07 A2999 RMK A01 T04020069  RH  013%=      5-min Rain = 0
KEA1 121948Z 18020G25KT 40/07 A2999 RMK A01 T04040067  RH  013%=      5-min Rain = 0
KEA1 121949Z 19023KT 40/07 A2999 RMK A01 T04020065  RH  013%=      5-min Rain = 0
KEA1 121950Z 18016G23KT 40/07 A2999 RMK A01 T04000066  RH  013%=      5-min Rain = 0
KEA1 121951Z 19018G27KT 40/07 A2999 RMK A01 T04040070  RH  013%=      5-min Rain = 0
KEA1 121952Z 19021KT 41/07 A2999 RMK A01 T04070066  RH  013%=      5-min Rain = 0
KEA1 121953Z 19021KT 40/07 A2999 RMK A01 T04030065  RH  013%=      5-min Rain = 0
KEA1 121954Z 19018KT 40/07 A2999 RMK A01 T04020066  RH  013%=      5-min Rain = 0
KEA1 121955Z 19017KT 40/06 A2999 RMK A01 T03990064  RH  013%=      5-min Rain = 0
KEA1 121956Z 19016KT 40/07 A2999 RMK A01 T04010068  RH  013%=      5-min Rain = 0
KEA1 121957Z 19019G25KT 40/07 A2999 RMK A01 T04030067  RH  013%=      5-min Rain = 0
KEA1 121958Z 18021KT 40/07 A2999 RMK A01 T04040066  RH  013%=      5-min Rain = 0
KEA1 121959Z 18022KT 40/07 A2999 RMK A01 T04030066  RH  013%=      5-min Rain = 0
KEA1 122000Z 18024KT 40/07 A2999 RMK A01 T04030065  RH  013%=      5-min Rain = 0
KEA1 122001Z 18020G25KT 40/06 A2999 RMK A01 T04020063  RH  013%=      5-min Rain = 0
KEA1 122002Z 18020KT 40/06 A2999 RMK A01 T04020064  RH  013%=      5-min Rain = 0
KEA1 122003Z 18019G25KT 40/07 A2999 RMK A01 T04020065  RH  013%=      5-min Rain = 0
KEA1 122004Z 20017KT 41/07 A2999 RMK A01 T04070067  RH  013%=      5-min Rain = 0
KEA1 122005Z 20021G26KT 41/07 A2999 RMK A01 T04090066  RH  013%=      5-min Rain = 0
KEA1 122006Z 19020KT 41/06 A2999 RMK A01 T04050063  RH  013%=      5-min Rain = 0
KEA1 122007Z 19018KT 40/06 A2999 RMK A01 T04000063  RH  013%=      5-min Rain = 0
KEA1 122008Z 20021G27KT 40/07 A2999 RMK A01 T04010065  RH  013%=      5-min Rain = 0
KEA1 122009Z 19019KT 40/07 A2999 RMK A01 T04030065  RH  013%=      5-min Rain = 0
KEA1 122010Z 18016KT 40/06 A2999 RMK A01 T04030064  RH  013%=      5-min Rain = 0
KEA1 122011Z 19016KT 40/07 A2999 RMK A01 T04030066  RH  013%=      5-min Rain = 0
KEA1 122012Z 19019KT 41/07 A2998 RMK A01 T04080066  RH  013%=      5-min Rain = 0
KEA1 122013Z 20017KT 41/06 A2998 RMK A01 T04060064  RH  013%=      5-min Rain = 0
KEA1 122014Z 20019KT 40/06 A2998 RMK A01 T04040064  RH  013%=      5-min Rain = 0
KEA1 122015Z 19018KT 40/07 A2998 RMK A01 T04030066  RH  013%=      5-min Rain = 0
KEA1 122016Z 19021KT 41/07 A2998 RMK A01 T04090068  RH  013%=      5-min Rain = 0
KEA1 122017Z 19021G28KT 41/07 A2998 RMK A01 T04120068  RH  013%=      5-min Rain = 0
KEA1 122018Z 20021KT 41/06 A2998 RMK A01 T04110063  RH  012%=      5-min Rain = 0
KEA1 122019Z 22015KT 41/06 A2998 RMK A01 T04050064  RH  013%=      5-min Rain = 0
KEA1 122020Z 21015G20KT 41/07 A2998 RMK A01 T04050073  RH  013%=      5-min Rain = 0
KEA1 122021Z 20016G22KT 41/07 A2998 RMK A01 T04080067  RH  013%=      5-min Rain = 0
KEA1 122022Z 20015KT 41/07 A2998 RMK A01 T04090065  RH  013%=      5-min Rain = 0
KEA1 122023Z 18017KT 41/07 A2998 RMK A01 T04070065  RH  013%=      5-min Rain = 0
KEA1 122024Z 18019KT 41/07 A2998 RMK A01 T04090066  RH  013%=      5-min Rain = 0
KEA1 122025Z 18019KT 41/07 A2998 RMK A01 T04110065  RH  012%=      5-min Rain = 0
KEA1 122026Z 19019KT 41/06 A2998 RMK A01 T04090063  RH  012%=      5-min Rain = 0
KEA1 122027Z 20017G24KT 41/06 A2998 RMK A01 T04070062  RH  012%=      5-min Rain = 0
KEA1 122028Z 20015KT 41/06 A2998 RMK A01 T04050063  RH  013%=      5-min Rain = 0
KEA1 122029Z 20017KT 41/07 A2998 RMK A01 T04100066  RH  012%=      5-min Rain = 0
KEA1 122030Z 19023KT 41/06 A2997 RMK A01 T04120064  RH  012%=      5-min Rain = 0
KEA1 122031Z 20023KT 41/06 A2997 RMK A01 T04100063  RH  012%=      5-min Rain = 0
KEA1 122032Z 19014KT 41/06 A2998 RMK A01 T04060062  RH  012%=      5-min Rain = 0
KEA1 122033Z 20019KT 41/06 A2997 RMK A01 T04060063  RH  013%=      5-min Rain = 0
KEA1 122034Z 18017KT 41/06 A2997 RMK A01 T04070063  RH  012%=      5-min Rain = 0
KEA1 122035Z 19014G19KT 41/07 A2997 RMK A01 T04080065  RH  013%=      5-min Rain = 0
KEA1 122036Z 19012KT 41/06 A2997 RMK A01 T04090064  RH  012%=      5-min Rain = 0
KEA1 122037Z 20014KT 41/06 A2997 RMK A01 T04070064  RH  012%=      5-min Rain = 0
KEA1 122038Z 18015G23KT 41/07 A2997 RMK A01 T04090067  RH  013%=      5-min Rain = 0
KEA1 122039Z 19023KT 42/07 A2997 RMK A01 T04150066  RH  012%=      5-min Rain = 0
KEA1 122040Z 19022G27KT 42/07 A2997 RMK A01 T04150066  RH  012%=      5-min Rain = 0
KEA1 122041Z 19017G22KT 42/06 A2997 RMK A01 T04150062  RH  012%=      5-min Rain = 0
KEA1 122042Z 20017G22KT 41/06 A2997 RMK A01 T04110064  RH  012%=      5-min Rain = 0
KEA1 122043Z 18020KT 41/06 A2997 RMK A01 T04110063  RH  012%=      5-min Rain = 0
KEA1 122044Z 19018KT 41/06 A2997 RMK A01 T04090061  RH  012%=      5-min Rain = 0
KEA1 122045Z 18018KT 41/06 A2997 RMK A01 T04080063  RH  012%=      5-min Rain = 0
KEA1 122046Z 17017KT 41/06 A2997 RMK A01 T04090063  RH  012%=      5-min Rain = 0
KEA1 122047Z 19016G26KT 41/06 A2997 RMK A01 T04080064  RH  012%=      5-min Rain = 0
KEA1 122048Z 20022KT 41/06 A2996 RMK A01 T04110063  RH  012%=      5-min Rain = 0
KEA1 122049Z 21019G24KT 41/06 A2996 RMK A01 T04090059  RH  012%=      5-min Rain = 0
KEA1 122050Z 22014KT 41/06 A2997 RMK A01 T04050059  RH  012%=      5-min Rain = 0
KEA1 122051Z 20018KT 40/06 A2996 RMK A01 T04040063  RH  013%=      5-min Rain = 0
KEA1 122052Z 19017KT 41/06 A2996 RMK A01 T04080061  RH  012%=      5-min Rain = 0
KEA1 122053Z 18014KT 41/06 A2997 RMK A01 T04080061  RH  012%=      5-min Rain = 0
KEA1 122054Z 19011KT 41/07 A2997 RMK A01 T04130066  RH  012%=      5-min Rain = 0
KEA1 122055Z 19012KT 42/07 A2997 RMK A01 T04210066  RH  012%=      5-min Rain = 0
KEA1 122056Z 18011KT 42/06 A2996 RMK A01 T04170063  RH  012%=      5-min Rain = 0
KEA1 122057Z 18014G24KT 42/06 A2996 RMK A01 T04150064  RH  012%=      5-min Rain = 0
KEA1 122058Z 20022KT 42/06 A2996 RMK A01 T04160062  RH  012%=      5-min Rain = 0
KEA1 122059Z 19020G25KT 41/06 A2996 RMK A01 T04130058  RH  012%=      5-min Rain = 0
KEA1 122100Z 19021KT 41/06 A2996 RMK A01 T04090057  RH  012%=      5-min Rain = 0
KEA1 122101Z 19020KT 41/06 A2996 RMK A01 T04070057  RH  012%=      5-min Rain = 0
KEA1 122102Z 18020KT 41/06 A2996 RMK A01 T04060058  RH  012%=      5-min Rain = 0
KEA1 122103Z 18017KT 41/06 A2996 RMK A01 T04060057  RH  012%=      5-min Rain = 0
KEA1 122104Z 19014G19KT 40/06 A2996 RMK A01 T04040058  RH  012%=      5-min Rain = 0
KEA1 122105Z 19010KT 41/06 A2996 RMK A01 T04060060  RH  012%=      5-min Rain = 0
KEA1 122106Z 18014KT 41/06 A2996 RMK A01 T04090062  RH  012%=      5-min Rain = 0
KEA1 122107Z 18013G18KT 41/06 A2996 RMK A01 T04140063  RH  012%=      5-min Rain = 0
KEA1 122108Z 17016KT 42/06 A2996 RMK A01 T04200063  RH  012%=      5-min Rain = 0
KEA1 122109Z 19018KT 42/06 A2995 RMK A01 T04190059  RH  011%=      5-min Rain = 0
KEA1 122110Z 19020G25KT 42/06 A2995 RMK A01 T04150055  RH  011%=      5-min Rain = 0
KEA1 122111Z 20022KT 41/06 A2995 RMK A01 T04130056  RH  012%=      5-min Rain = 0
KEA1 122112Z 19021KT 41/06 A2995 RMK A01 T04130058  RH  012%=      5-min Rain = 0
KEA1 122113Z 19020KT 42/06 A2995 RMK A01 T04150056  RH  011%=      5-min Rain = 0
KEA1 122114Z 17016KT 41/06 A2995 RMK A01 T04140056  RH  011%=      5-min Rain = 0
KEA1 122115Z 18019KT 42/06 A2995 RMK A01 T04180057  RH  011%=      5-min Rain = 0
KEA1 122116Z 19020KT 42/06 A2995 RMK A01 T04180057  RH  011%=      5-min Rain = 0
KEA1 122117Z 19019KT 42/05 A2995 RMK A01 T04150054  RH  011%=      5-min Rain = 0
KEA1 122118Z 19020G27KT 41/05 A2995 RMK A01 T04120053  RH  011%=      5-min Rain = 0
KEA1 122119Z 20013KT 41/05 A2995 RMK A01 T04110054  RH  012%=      5-min Rain = 0
KEA1 122120Z 20016KT 41/06 A2995 RMK A01 T04140057  RH  012%=      5-min Rain = 0
KEA1 122121Z 20016G21KT 42/06 A2995 RMK A01 T04170056  RH  011%=      5-min Rain = 0
KEA1 122122Z 21017G22KT 41/05 A2994 RMK A01 T04140054  RH  011%=      5-min Rain = 0
KEA1 122123Z 19015KT 41/05 A2995 RMK A01 T04120054  RH  011%=      5-min Rain = 0
KEA1 122124Z 18015G22KT 41/06 A2995 RMK A01 T04120057  RH  012%=      5-min Rain = 0
KEA1 122125Z 19020G25KT 42/06 A2995 RMK A01 T04180059  RH  011%=      5-min Rain = 0
KEA1 122126Z 19020KT 42/05 A2995 RMK A01 T04190054  RH  011%=      5-min Rain = 0
KEA1 122127Z 18018KT 41/05 A2994 RMK A01 T04130052  RH  011%=      5-min Rain = 0
KEA1 122128Z 19016KT 41/05 A2994 RMK A01 T04110054  RH  011%=      5-min Rain = 0
KEA1 122129Z 18016KT 41/06 A2994 RMK A01 T04140055  RH  011%=      5-min Rain = 0
KEA1 122130Z 19015KT 42/06 A2994 RMK A01 T04190057  RH  011%=      5-min Rain = 0
KEA1 122131Z 19011KT 42/05 A2995 RMK A01 T04160053  RH  011%=      5-min Rain = 0
KEA1 122132Z 19013G18KT 42/06 A2994 RMK A01 T04150055  RH  011%=      5-min Rain = 0
KEA1 122133Z 20015G20KT 42/06 A2994 RMK A01 T04160056  RH  011%=      5-min Rain = 0
KEA1 122134Z 20016KT 42/06 A2994 RMK A01 T04170055  RH  011%=      5-min Rain = 0
KEA1 122135Z 21015KT 42/05 A2994 RMK A01 T04180051  RH  011%=      5-min Rain = 0
KEA1 122136Z 21017KT 42/05 A2994 RMK A01 T04160052  RH  011%=      5-min Rain = 0
KEA1 122137Z 21015KT 42/05 A2994 RMK A01 T04160052  RH  011%=      5-min Rain = 0
KEA1 122138Z 20015KT 42/05 A2994 RMK A01 T04150054  RH  011%=      5-min Rain = 0
KEA1 122139Z 22013G18KT 41/05 A2994 RMK A01 T04140052  RH  011%=      5-min Rain = 0
KEA1 122140Z 19018KT 42/05 A2994 RMK A01 T04150054  RH  011%=      5-min Rain = 0
KEA1 122141Z 20013G20KT 42/05 A2994 RMK A01 T04170053  RH  011%=      5-min Rain = 0
KEA1 122142Z 19020KT 42/05 A2994 RMK A01 T04190054  RH  011%=      5-min Rain = 0
KEA1 122143Z 19015G20KT 42/05 A2994 RMK A01 T04200053  RH  011%=      5-min Rain = 0
KEA1 122144Z 22013KT 42/06 A2994 RMK A01 T04240061  RH  011%=      5-min Rain = 0
KEA1 122145Z 20013KT 43/06 A2994 RMK A01 T04250057  RH  011%=      5-min Rain = 0
KEA1 122146Z 19014KT 43/06 A2994 RMK A01 T04260057  RH  011%=      5-min Rain = 0
KEA1 122147Z 20018G24KT 43/06 A2994 RMK A01 T04280056  RH  011%=      5-min Rain = 0
KEA1 122148Z 21016G24KT 43/06 A2994 RMK A01 T04250059  RH  011%=      5-min Rain = 0
KEA1 122149Z 20022KT 42/05 A2993 RMK A01 T04210053  RH  011%=      5-min Rain = 0
KEA1 122150Z 21018G23KT 42/05 A2993 RMK A01 T04180049  RH  011%=      5-min Rain = 0
KEA1 122151Z 21016KT 42/06 A2993 RMK A01 T04160055  RH  011%=      5-min Rain = 0
KEA1 122152Z 22016KT 41/07 A2993 RMK A01 T04130065  RH  012%=      5-min Rain = 0
KEA1 122153Z 20016G22KT 41/06 A2994 RMK A01 T04120062  RH  012%=      5-min Rain = 0
KEA1 122154Z 20019KT 42/05 A2993 RMK A01 T04160049  RH  011%=      5-min Rain = 0
KEA1 122155Z 19016KT 42/05 A2993 RMK A01 T04160049  RH  011%=      5-min Rain = 0
KEA1 122156Z 20018G24KT 42/05 A2993 RMK A01 T04190052  RH  011%=      5-min Rain = 0
KEA1 122157Z 22019KT 42/06 A2993 RMK A01 T04210061  RH  011%=      5-min Rain = 0
KEA1 122158Z 21016KT 42/06 A2993 RMK A01 T04170063  RH  012%=      5-min Rain = 0
KEA1 122159Z 21017KT 42/06 A2993 RMK A01 T04150060  RH  012%=      5-min Rain = 0
KEA1 122200Z 21014KT 41/05 A2993 RMK A01 T04130053  RH  011%=      5-min Rain = 0
KEA1 122201Z 22012KT 41/05 A2993 RMK A01 T04100050  RH  011%=      5-min Rain = 0
KEA1 122202Z 21011KT 41/06 A2993 RMK A01 T04110056  RH  012%=      5-min Rain = 0
KEA1 122203Z 19020G25KT 42/06 A2993 RMK A01 T04160055  RH  011%=      5-min Rain = 0
KEA1 122204Z 21020KT 42/05 A2993 RMK A01 T04210054  RH  011%=      5-min Rain = 0
KEA1 122205Z 20021KT 42/05 A2993 RMK A01 T04230053  RH  011%=      5-min Rain = 0
KEA1 122206Z 21020KT 42/06 A2993 RMK A01 T04200059  RH  011%=      5-min Rain = 0
KEA1 122207Z 23017KT 42/06 A2993 RMK A01 T04190061  RH  012%=      5-min Rain = 0
KEA1 122208Z 22016KT 42/06 A2993 RMK A01 T04160064  RH  012%=      5-min Rain = 0
KEA1 122209Z 22017G22KT 41/07 A2993 RMK A01 T04140069  RH  013%=      5-min Rain = 0
KEA1 122210Z 21017KT 41/06 A2993 RMK A01 T04130059  RH  012%=      5-min Rain = 0
KEA1 122211Z 21019KT 42/05 A2993 RMK A01 T04160054  RH  011%=      5-min Rain = 0
KEA1 122212Z 21014KT 42/05 A2993 RMK A01 T04160051  RH  011%=      5-min Rain = 0
KEA1 122213Z 20008G13KT 42/05 A2993 RMK A01 T04170052  RH  011%=      5-min Rain = 0
KEA1 122214Z 22016G21KT 42/06 A2993 RMK A01 T04180063  RH  012%=      5-min Rain = 0
KEA1 122215Z 22022KT 42/07 A2992 RMK A01 T04190066  RH  012%=      5-min Rain = 0
KEA1 122216Z 22018KT 42/06 A2992 RMK A01 T04170059  RH  012%=      5-min Rain = 0
KEA1 122217Z 22015KT 41/06 A2992 RMK A01 T04140055  RH  011%=      5-min Rain = 0
KEA1 122218Z 20017KT 41/06 A2992 RMK A01 T04140064  RH  012%=      5-min Rain = 0
KEA1 122219Z 19016KT 42/05 A2992 RMK A01 T04170048  RH  011%=      5-min Rain = 0
KEA1 122220Z 20018KT 42/05 A2992 RMK A01 T04170047  RH  011%=      5-min Rain = 0
KEA1 122221Z 20015KT 42/05 A2992 RMK A01 T04170046  RH  011%=      5-min Rain = 0
KEA1 122222Z 19016G23KT 42/05 A2992 RMK A01 T04150047  RH  011%=      5-min Rain = 0
KEA1 122223Z 20022KT 42/05 A2992 RMK A01 T04160049  RH  011%=      5-min Rain = 0
KEA1 122224Z 20019KT 41/05 A2992 RMK A01 T04130046  RH  011%=      5-min Rain = 0
KEA1 122225Z 20018KT 41/05 A2992 RMK A01 T04090046  RH  011%=      5-min Rain = 0
KEA1 122226Z 21018KT 41/04 A2992 RMK A01 T04070044  RH  011%=      5-min Rain = 0
KEA1 122227Z 21015KT 41/05 A2992 RMK A01 T04060046  RH  011%=      5-min Rain = 0
KEA1 122228Z 20015KT 41/05 A2992 RMK A01 T04080045  RH  011%=      5-min Rain = 0
KEA1 122229Z 21017KT 41/05 A2992 RMK A01 T04090045  RH  011%=      5-min Rain = 0
KEA1 122230Z 20018KT 41/05 A2992 RMK A01 T04130051  RH  011%=      5-min Rain = 0
KEA1 122231Z 20017KT 41/05 A2992 RMK A01 T04140047  RH  011%=      5-min Rain = 0
KEA1 122232Z 20014G19KT 41/05 A2992 RMK A01 T04100047  RH  011%=      5-min Rain = 0
KEA1 122233Z 21017KT 41/05 A2992 RMK A01 T04080047  RH  011%=      5-min Rain = 0
KEA1 122234Z 21017G23KT 41/06 A2992 RMK A01 T04070059  RH  012%=      5-min Rain = 0
KEA1 122235Z 21017G24KT 41/06 A2992 RMK A01 T04060059  RH  012%=      5-min Rain = 0
KEA1 122236Z 22019KT 40/06 A2992 RMK A01 T04030060  RH  012%=      5-min Rain = 0
KEA1 122237Z 22018G23KT 40/07 A2993 RMK A01 T04030065  RH  013%=      5-min Rain = 0
KEA1 122238Z 21016KT 41/06 A2992 RMK A01 T04060061  RH  012%=      5-min Rain = 0
KEA1 122239Z 21015KT 41/07 A2993 RMK A01 T04050068  RH  013%=      5-min Rain = 0
KEA1 122240Z 21015G20KT 40/06 A2993 RMK A01 T04040061  RH  013%=      5-min Rain = 0
KEA1 122241Z 21013KT 40/05 A2993 RMK A01 T04040048  RH  011%=      5-min Rain = 0
KEA1 122242Z 20014KT 40/05 A2993 RMK A01 T04030049  RH  011%=      5-min Rain = 0
KEA1 122243Z 20017KT 40/05 A2992 RMK A01 T04030047  RH  011%=      5-min Rain = 0
KEA1 122244Z 21014G19KT 40/06 A2992 RMK A01 T04020056  RH  012%=      5-min Rain = 0
KEA1 122245Z 21018KT 40/05 A2992 RMK A01 T04020053  RH  012%=      5-min Rain = 0
KEA1 122246Z 21017KT 40/05 A2992 RMK A01 T04020053  RH  012%=      5-min Rain = 0
KEA1 122247Z 20017KT 40/05 A2992 RMK A01 T04010048  RH  012%=      5-min Rain = 0
KEA1 122248Z 20014KT 40/04 A2992 RMK A01 T04010043  RH  011%=      5-min Rain = 0
KEA1 122249Z 21017KT 40/05 A2992 RMK A01 T04010047  RH  011%=      5-min Rain = 0
KEA1 122250Z 21019KT 40/06 A2992 RMK A01 T04010063  RH  013%=      5-min Rain = 0
KEA1 122251Z 21016KT 40/05 A2992 RMK A01 T04000054  RH  012%=      5-min Rain = 0
KEA1 122252Z 21016G22KT 40/05 A2992 RMK A01 T04000048  RH  012%=      5-min Rain = 0
KEA1 122253Z 20014G19KT 40/05 A2992 RMK A01 T04010045  RH  011%=      5-min Rain = 0
KEA1 122254Z 20017G22KT 40/04 A2992 RMK A01 T04020044  RH  011%=      5-min Rain = 0
KEA1 122255Z 20018KT 40/04 A2992 RMK A01 T04020041  RH  011%=      5-min Rain = 0
KEA1 122256Z 20017KT 40/04 A2992 RMK A01 T04020040  RH  011%=      5-min Rain = 0
KEA1 122257Z 21018KT 40/04 A2992 RMK A01 T04010040  RH  011%=      5-min Rain = 0
KEA1 122258Z 20017KT 40/04 A2992 RMK A01 T04010039  RH  011%=      5-min Rain = 0
KEA1 122259Z 20017KT 40/04 A2992 RMK A01 T04010039  RH  011%=      5-min Rain = 0
KEA1 122300Z 21019G25KT 40/04 A2992 RMK A01 T04010041  RH  011%=      5-min Rain = 0
KEA1 122301Z 20020KT 40/04 A2992 RMK A01 T04010041  RH  011%=      5-min Rain = 0
KEA1 122302Z 20018KT 40/04 A2992 RMK A01 T04010040  RH  011%=      5-min Rain = 0
KEA1 122303Z 20018KT 40/04 A2992 RMK A01 T04010038  RH  011%=      5-min Rain = 0
KEA1 122304Z 21014KT 40/04 A2992 RMK A01 T04010041  RH  011%=      5-min Rain = 0
KEA1 122305Z 21013KT 40/04 A2992 RMK A01 T04000041  RH  011%=      5-min Rain = 0
KEA1 122306Z 19013KT 40/04 A2992 RMK A01 T04000040  RH  011%=      5-min Rain = 0
KEA1 122307Z 21014KT 40/04 A2992 RMK A01 T04010042  RH  011%=      5-min Rain = 0
KEA1 122308Z 20016KT 40/04 A2992 RMK A01 T04010042  RH  011%=      5-min Rain = 0
KEA1 122309Z 20015KT 40/04 A2992 RMK A01 T04020042  RH  011%=      5-min Rain = 0
KEA1 122310Z 20015KT 40/04 A2992 RMK A01 T04020043  RH  011%=      5-min Rain = 0
KEA1 122311Z 20018G24KT 40/04 A2992 RMK A01 T04030042  RH  011%=      5-min Rain = 0
KEA1 122312Z 20019KT 40/04 A2992 RMK A01 T04020041  RH  011%=      5-min Rain = 0
KEA1 122313Z 20020KT 40/04 A2991 RMK A01 T04010039  RH  011%=      5-min Rain = 0
KEA1 122314Z 20018KT 40/04 A2992 RMK A01 T04020040  RH  011%=      5-min Rain = 0
KEA1 122315Z 19014KT 41/04 A2992 RMK A01 T04050044  RH  011%=      5-min Rain = 0
KEA1 122316Z 19014G19KT 41/05 A2992 RMK A01 T04090045  RH  011%=      5-min Rain = 0
KEA1 122317Z 19015KT 41/04 A2992 RMK A01 T04080042  RH  011%=      5-min Rain = 0
KEA1 122318Z 20016KT 41/04 A2992 RMK A01 T04050039  RH  011%=      5-min Rain = 0
KEA1 122319Z 19016KT 40/04 A2992 RMK A01 T04020037  RH  011%=      5-min Rain = 0
KEA1 122320Z 19013KT 40/04 A2992 RMK A01 T04010039  RH  011%=      5-min Rain = 0
KEA1 122321Z 19014KT 40/04 A2992 RMK A01 T04020040  RH  011%=      5-min Rain = 0
KEA1 122322Z 19014KT 41/04 A2992 RMK A01 T04050043  RH  011%=      5-min Rain = 0
KEA1 122323Z 18018KT 41/04 A2991 RMK A01 T04080043  RH  011%=      5-min Rain = 0
KEA1 122324Z 18018KT 41/04 A2991 RMK A01 T04100040  RH  010%=      5-min Rain = 0
KEA1 122325Z 19016KT 41/04 A2991 RMK A01 T04100042  RH  011%=      5-min Rain = 0
KEA1 122326Z 19013KT 41/04 A2992 RMK A01 T04070040  RH  011%=      5-min Rain = 0
KEA1 122327Z 19012KT 41/04 A2992 RMK A01 T04070042  RH  011%=      5-min Rain = 0
KEA1 122328Z 19015KT 41/04 A2991 RMK A01 T04060042  RH  011%=      5-min Rain = 0
KEA1 122329Z 20016KT 41/04 A2991 RMK A01 T04050041  RH  011%=      5-min Rain = 0
KEA1 122330Z 20014KT 41/04 A2991 RMK A01 T04060040  RH  011%=      5-min Rain = 0
KEA1 122331Z 20019G24KT 41/04 A2991 RMK A01 T04090042  RH  011%=      5-min Rain = 0
KEA1 122332Z 20020KT 41/04 A2991 RMK A01 T04080040  RH  011%=      5-min Rain = 0
KEA1 122333Z 19018KT 41/04 A2991 RMK A01 T04060039  RH  011%=      5-min Rain = 0
KEA1 122334Z 20015KT 41/04 A2991 RMK A01 T04050040  RH  011%=      5-min Rain = 0
KEA1 122335Z 20013KT 41/04 A2991 RMK A01 T04070044  RH  011%=      5-min Rain = 0
KEA1 122336Z 21014KT 41/05 A2991 RMK A01 T04090045  RH  011%=      5-min Rain = 0
KEA1 122337Z 20018KT 41/04 A2991 RMK A01 T04090043  RH  011%=      5-min Rain = 0
KEA1 122338Z 20017KT 41/04 A2991 RMK A01 T04060039  RH  011%=      5-min Rain = 0
KEA1 122339Z 20018KT 40/04 A2991 RMK A01 T04030038  RH  011%=      5-min Rain = 0
KEA1 122340Z 20019G24KT 40/04 A2991 RMK A01 T04020037  RH  011%=      5-min Rain = 0
KEA1 122341Z 20019KT 40/04 A2991 RMK A01 T04000036  RH  011%=      5-min Rain = 0
KEA1 122342Z 20019KT 40/04 A2991 RMK A01 T04000036  RH  011%=      5-min Rain = 0
KEA1 122343Z 19020KT 40/04 A2991 RMK A01 T04000037  RH  011%=      5-min Rain = 0
KEA1 122344Z 19018KT 40/04 A2991 RMK A01 T03990036  RH  011%=      5-min Rain = 0
KEA1 122345Z 19017KT 40/04 A2991 RMK A01 T03990036  RH  011%=      5-min Rain = 0
KEA1 122346Z 19016KT 40/04 A2991 RMK A01 T03990037  RH  011%=      5-min Rain = 0
KEA1 122347Z 19015KT 40/04 A2991 RMK A01 T03990038  RH  011%=      5-min Rain = 0
KEA1 122348Z 19015KT 40/04 A2991 RMK A01 T04000040  RH  011%=      5-min Rain = 0
KEA1 122349Z 19016KT 40/04 A2991 RMK A01 T04000039  RH  011%=      5-min Rain = 0
KEA1 122350Z 19016KT 40/04 A2991 RMK A01 T04000040  RH  011%=      5-min Rain = 0
KEA1 122351Z 19016KT 40/04 A2991 RMK A01 T04000038  RH  011%=      5-min Rain = 0
KEA1 122352Z 20013KT 40/04 A2991 RMK A01 T03990038  RH  011%=      5-min Rain = 0
KEA1 122353Z 19013KT 40/04 A2991 RMK A01 T03990040  RH  011%=      5-min Rain = 0
KEA1 122354Z 19012KT 40/04 A2991 RMK A01 T03980042  RH  011%=      5-min Rain = 0
KEA1 122355Z 20012KT 40/04 A2991 RMK A01 T03990042  RH  011%=      5-min Rain = 0
KEA1 122356Z 20017KT 40/04 A2991 RMK A01 T03980038  RH  011%=      5-min Rain = 0
KEA1 122357Z 20013KT 40/04 A2991 RMK A01 T03970036  RH  011%=      5-min Rain = 0
KEA1 122358Z 20012KT 40/04 A2991 RMK A01 T03970038  RH  011%=      5-min Rain = 0
KEA1 122359Z 19012KT 40/04 A2991 RMK A01 T03970038  RH  011%=      5-min Rain = 0
KEA1 130000Z 19015KT 40/04 A2991 RMK A01 T03970038  RH  011%=      5-min Rain = 0
KEA1 130001Z 19015G20KT 40/04 A2991 RMK A01 T03980037  RH  011%=      5-min Rain = 0
KEA1 130002Z 19014G19KT 40/04 A2991 RMK A01 T03980038  RH  011%=      5-min Rain = 0
KEA1 130003Z 19014KT 40/04 A2991 RMK A01 T03960038  RH  011%=      5-min Rain = 0
KEA1 130004Z 19015KT 40/04 A2991 RMK A01 T03950038  RH  011%=      5-min Rain = 0
KEA1 130005Z 19014KT 40/04 A2991 RMK A01 T03950039  RH  011%=      5-min Rain = 0
KEA1 130006Z 18015KT 40/04 A2991 RMK A01 T03950039  RH  011%=      5-min Rain = 0
KEA1 130007Z 18015KT 39/04 A2991 RMK A01 T03940041  RH  011%=      5-min Rain = 0
KEA1 130008Z 18014KT 39/04 A2991 RMK A01 T03940041  RH  011%=      5-min Rain = 0
KEA1 130009Z 18012KT 39/04 A2991 RMK A01 T03930041  RH  012%=      5-min Rain = 0
KEA1 130010Z 19018KT 39/04 A2991 RMK A01 T03930039  RH  011%=      5-min Rain = 0
KEA1 130011Z 19019KT 39/04 A2991 RMK A01 T03920036  RH  011%=      5-min Rain = 0
KEA1 130012Z 18017KT 39/04 A2991 RMK A01 T03910037  RH  011%=      5-min Rain = 0
KEA1 130013Z 18015KT 39/04 A2991 RMK A01 T03910039  RH  011%=      5-min Rain = 0
KEA1 130014Z 18015KT 39/04 A2991 RMK A01 T03900041  RH  012%=      5-min Rain = 0
KEA1 130015Z 18016KT 39/04 A2991 RMK A01 T03900041  RH  012%=      5-min Rain = 0
KEA1 130016Z 18016KT 39/04 A2991 RMK A01 T03890041  RH  012%=      5-min Rain = 0
KEA1 130017Z 18017KT 39/04 A2991 RMK A01 T03870041  RH  012%=      5-min Rain = 0
KEA1 130018Z 17016G21KT 39/04 A2991 RMK A01 T03860040  RH  012%=      5-min Rain = 0
KEA1 130019Z 17018KT 39/04 A2991 RMK A01 T03850039  RH  012%=      5-min Rain = 0
KEA1 130020Z 17019KT 38/04 A2991 RMK A01 T03840040  RH  012%=      5-min Rain = 0
KEA1 130021Z 17017KT 38/04 A2991 RMK A01 T03830040  RH  012%=      5-min Rain = 0
KEA1 130022Z 17017KT 38/04 A2991 RMK A01 T03840040  RH  012%=      5-min Rain = 0
KEA1 130023Z 17017KT 39/04 A2991 RMK A01 T03860041  RH  012%=      5-min Rain = 0
KEA1 130024Z 17015KT 39/04 A2991 RMK A01 T03880043  RH  012%=      5-min Rain = 0
KEA1 130025Z 17014KT 39/04 A2991 RMK A01 T03890043  RH  012%=      5-min Rain = 0
KEA1 130026Z 18016KT 39/04 A2991 RMK A01 T03890044  RH  012%=      5-min Rain = 0
KEA1 130027Z 18014G21KT 39/04 A2991 RMK A01 T03870044  RH  012%=      5-min Rain = 0
KEA1 130028Z 18016G21KT 39/04 A2991 RMK A01 T03860042  RH  012%=      5-min Rain = 0
KEA1 130029Z 17017KT 39/04 A2991 RMK A01 T03850043  RH  012%=      5-min Rain = 0
KEA1 130030Z 18017KT 39/04 A2991 RMK A01 T03850041  RH  012%=      5-min Rain = 0
KEA1 130031Z 18018KT 39/04 A2991 RMK A01 T03850040  RH  012%=      5-min Rain = 0
KEA1 130032Z 18018G23KT 38/04 A2991 RMK A01 T03840038  RH  012%=      5-min Rain = 0
KEA1 130033Z 18023KT 39/04 A2991 RMK A01 T03850039  RH  012%=      5-min Rain = 0
KEA1 130034Z 18018G24KT 38/04 A2991 RMK A01 T03840038  RH  012%=      5-min Rain = 0
KEA1 130035Z 18017KT 38/04 A2991 RMK A01 T03840038  RH  012%=      5-min Rain = 0
KEA1 130036Z 18022KT 38/04 A2991 RMK A01 T03830037  RH  012%=      5-min Rain = 0
KEA1 130037Z 19021KT 38/04 A2991 RMK A01 T03840035  RH  012%=      5-min Rain = 0
KEA1 130038Z 18019KT 38/04 A2991 RMK A01 T03830036  RH  012%=      5-min Rain = 0
KEA1 130039Z 18015KT 38/04 A2991 RMK A01 T03830036  RH  012%=      5-min Rain = 0
KEA1 130040Z 18016KT 38/04 A2992 RMK A01 T03820037  RH  012%=      5-min Rain = 0
KEA1 130041Z 18018KT 38/04 A2991 RMK A01 T03820037  RH  012%=      5-min Rain = 0
KEA1 130042Z 18018KT 38/04 A2991 RMK A01 T03820037  RH  012%=      5-min Rain = 0
KEA1 130043Z 18017KT 38/04 A2991 RMK A01 T03810036  RH  012%=      5-min Rain = 0
KEA1 130044Z 18016KT 38/04 A2992 RMK A01 T03810037  RH  012%=      5-min Rain = 0
KEA1 130045Z 18017G22KT 38/04 A2992 RMK A01 T03800038  RH  012%=      5-min Rain = 0
KEA1 130046Z 18017KT 38/04 A2992 RMK A01 T03800038  RH  012%=      5-min Rain = 0
KEA1 130047Z 18017KT 38/04 A2992 RMK A01 T03790037  RH  012%=      5-min Rain = 0
KEA1 130048Z 18016KT 38/04 A2992 RMK A01 T03790037  RH  012%=      5-min Rain = 0
KEA1 130049Z 18016KT 38/04 A2992 RMK A01 T03780038  RH  012%=      5-min Rain = 0
KEA1 130050Z 18014KT 38/04 A2992 RMK A01 T03770039  RH  012%=      5-min Rain = 0
KEA1 130051Z 18013KT 38/04 A2992 RMK A01 T03770040  RH  012%=      5-min Rain = 0
KEA1 130052Z 18013KT 38/04 A2992 RMK A01 T03760040  RH  013%=      5-min Rain = 0
KEA1 130053Z 18013KT 38/04 A2992 RMK A01 T03750040  RH  013%=      5-min Rain = 0
KEA1 130054Z 18014KT 37/04 A2992 RMK A01 T03740040  RH  013%=      5-min Rain = 0
KEA1 130055Z 18014KT 37/04 A2992 RMK A01 T03740040  RH  013%=      5-min Rain = 0
KEA1 130056Z 18014KT 37/04 A2992 RMK A01 T03740041  RH  013%=      5-min Rain = 0
KEA1 130057Z 18014KT 37/04 A2992 RMK A01 T03730041  RH  013%=      5-min Rain = 0
KEA1 130058Z 18015KT 37/04 A2992 RMK A01 T03720041  RH  013%=      5-min Rain = 0
KEA1 130059Z 18016KT 37/04 A2992 RMK A01 T03720041  RH  013%=      5-min Rain = 0
KEA1 130100Z 18014KT 37/04 A2992 RMK A01 T03720041  RH  013%=      5-min Rain = 0
KEA1 130101Z 18014KT 37/04 A2992 RMK A01 T03710041  RH  013%=      5-min Rain = 0
KEA1 130102Z 18014KT 37/04 A2992 RMK A01 T03710040  RH  013%=      5-min Rain = 0
KEA1 130103Z 18015KT 37/04 A2992 RMK A01 T03700040  RH  013%=      5-min Rain = 0
KEA1 130104Z 18014KT 37/04 A2992 RMK A01 T03700040  RH  013%=      5-min Rain = 0
KEA1 130105Z 18014KT 37/04 A2992 RMK A01 T03700040  RH  013%=      5-min Rain = 0
KEA1 130106Z 18014KT 37/04 A2992 RMK A01 T03690040  RH  013%=      5-min Rain = 0
KEA1 130107Z 18013G18KT 37/04 A2992 RMK A01 T03690040  RH  013%=      5-min Rain = 0
KEA1 130108Z 18014KT 37/04 A2992 RMK A01 T03680039  RH  013%=      5-min Rain = 0
KEA1 130109Z 18016G21KT 37/04 A2992 RMK A01 T03680037  RH  013%=      5-min Rain = 0
KEA1 130110Z 18018KT 37/04 A2992 RMK A01 T03680036  RH  013%=      5-min Rain = 0
KEA1 130111Z 18016KT 37/04 A2992 RMK A01 T03700035  RH  013%=      5-min Rain = 0
KEA1 130112Z 18016KT 37/04 A2992 RMK A01 T03700037  RH  013%=      5-min Rain = 0
KEA1 130113Z 18016G21KT 37/04 A2992 RMK A01 T03690035  RH  013%=      5-min Rain = 0
KEA1 130114Z 18016KT 37/04 A2992 RMK A01 T03680035  RH  013%=      5-min Rain = 0
KEA1 130115Z 18015KT 37/04 A2992 RMK A01 T03690035  RH  013%=      5-min Rain = 0
KEA1 130116Z 18013KT 37/04 A2992 RMK A01 T03680035  RH  013%=      5-min Rain = 0
KEA1 130117Z 18016KT 37/04 A2992 RMK A01 T03670035  RH  013%=      5-min Rain = 0
KEA1 130118Z 18015KT 37/03 A2992 RMK A01 T03660034  RH  013%=      5-min Rain = 0
KEA1 130119Z 18015KT 37/03 A2992 RMK A01 T03660034  RH  013%=      5-min Rain = 0
KEA1 130120Z 18016KT 37/03 A2992 RMK A01 T03660034  RH  013%=      5-min Rain = 0
KEA1 130121Z 18016KT 37/03 A2992 RMK A01 T03660034  RH  013%=      5-min Rain = 0
KEA1 130122Z 18014KT 37/03 A2993 RMK A01 T03660034  RH  013%=      5-min Rain = 0
KEA1 130123Z 18016KT 37/03 A2992 RMK A01 T03660034  RH  013%=      5-min Rain = 0
KEA1 130124Z 18016G21KT 37/03 A2992 RMK A01 T03660034  RH  013%=      5-min Rain = 0
KEA1 130125Z 18016KT 37/03 A2993 RMK A01 T03660033  RH  013%=      5-min Rain = 0
KEA1 130126Z 19015KT 37/03 A2993 RMK A01 T03660033  RH  013%=      5-min Rain = 0
KEA1 130127Z 18014KT 37/03 A2993 RMK A01 T03650034  RH  013%=      5-min Rain = 0
KEA1 130128Z 18014KT 37/03 A2993 RMK A01 T03650034  RH  013%=      5-min Rain = 0
KEA1 130129Z 18014KT 36/03 A2993 RMK A01 T03640034  RH  013%=      5-min Rain = 0
KEA1 130130Z 18013KT 36/03 A2993 RMK A01 T03630034  RH  013%=      5-min Rain = 0
KEA1 130131Z 18013KT 36/04 A2993 RMK A01 T03630035  RH  013%=      5-min Rain = 0
KEA1 130132Z 18013KT 36/04 A2993 RMK A01 T03620035  RH  013%=      5-min Rain = 0
KEA1 130133Z 18013KT 36/04 A2993 RMK A01 T03620035  RH  013%=      5-min Rain = 0
KEA1 130134Z 18013KT 36/04 A2993 RMK A01 T03620035  RH  013%=      5-min Rain = 0
KEA1 130135Z 18012KT 36/04 A2993 RMK A01 T03610036  RH  013%=      5-min Rain = 0
KEA1 130136Z 18014KT 36/04 A2993 RMK A01 T03600036  RH  013%=      5-min Rain = 0
KEA1 130137Z 18012KT 36/04 A2993 RMK A01 T03600035  RH  013%=      5-min Rain = 0
KEA1 130138Z 18015KT 36/04 A2993 RMK A01 T03600036  RH  013%=      5-min Rain = 0
KEA1 130139Z 18015KT 36/03 A2993 RMK A01 T03590034  RH  013%=      5-min Rain = 0
KEA1 130140Z 18012KT 36/04 A2993 RMK A01 T03600035  RH  013%=      5-min Rain = 0
KEA1 130141Z 18013KT 36/04 A2993 RMK A01 T03600035  RH  013%=      5-min Rain = 0
KEA1 130142Z 18013KT 36/04 A2993 RMK A01 T03590035  RH  013%=      5-min Rain = 0
KEA1 130143Z 18011KT 36/03 A2993 RMK A01 T03580034  RH  013%=      5-min Rain = 0
KEA1 130144Z 18013KT 36/03 A2993 RMK A01 T03580034  RH  013%=      5-min Rain = 0
KEA1 130145Z 18013KT 36/03 A2993 RMK A01 T03580034  RH  013%=      5-min Rain = 0
KEA1 130146Z 18012KT 36/03 A2993 RMK A01 T03580033  RH  013%=      5-min Rain = 0
KEA1 130147Z 18013KT 36/03 A2993 RMK A01 T03570033  RH  013%=      5-min Rain = 0
KEA1 130148Z 18012KT 36/03 A2993 RMK A01 T03570033  RH  013%=      5-min Rain = 0
KEA1 130149Z 18013KT 36/03 A2993 RMK A01 T03560033  RH  013%=      5-min Rain = 0
KEA1 130150Z 18014KT 36/03 A2993 RMK A01 T03560032  RH  013%=      5-min Rain = 0
KEA1 130151Z 18014KT 36/03 A2993 RMK A01 T03570032  RH  013%=      5-min Rain = 0
KEA1 130152Z 18015KT 36/03 A2993 RMK A01 T03570031  RH  013%=      5-min Rain = 0
KEA1 130153Z 18013KT 36/03 A2993 RMK A01 T03570031  RH  013%=      5-min Rain = 0
KEA1 130154Z 18013KT 36/03 A2993 RMK A01 T03550031  RH  013%=      5-min Rain = 0
KEA1 130155Z 18013KT 36/03 A2993 RMK A01 T03550031  RH  013%=      5-min Rain = 0
KEA1 130156Z 18014KT 35/03 A2993 RMK A01 T03540030  RH  013%=      5-min Rain = 0
KEA1 130157Z 18015KT 36/03 A2993 RMK A01 T03550030  RH  013%=      5-min Rain = 0
KEA1 130158Z 18015KT 36/03 A2993 RMK A01 T03550030  RH  013%=      5-min Rain = 0
KEA1 130159Z 19015KT 36/03 A2993 RMK A01 T03550030  RH  013%=      5-min Rain = 0
KEA1 130200Z 19015KT 36/03 A2993 RMK A01 T03550029  RH  013%=      5-min Rain = 0
KEA1 130201Z 18017KT 36/03 A2993 RMK A01 T03550029  RH  013%=      5-min Rain = 0
KEA1 130202Z 18015KT 36/03 A2993 RMK A01 T03550029  RH  013%=      5-min Rain = 0
KEA1 130203Z 18015KT 35/03 A2993 RMK A01 T03540028  RH  013%=      5-min Rain = 0
KEA1 130204Z 19016KT 35/03 A2993 RMK A01 T03540028  RH  013%=      5-min Rain = 0
KEA1 130205Z 19015G21KT 35/03 A2994 RMK A01 T03540028  RH  013%=      5-min Rain = 0
KEA1 130206Z 19014KT 35/03 A2994 RMK A01 T03540028  RH  013%=      5-min Rain = 0
KEA1 130207Z 19014KT 35/03 A2994 RMK A01 T03530028  RH  013%=      5-min Rain = 0
KEA1 130208Z 19013G19KT 35/03 A2994 RMK A01 T03530028  RH  013%=      5-min Rain = 0
KEA1 130209Z 19016G21KT 35/03 A2994 RMK A01 T03520028  RH  013%=      5-min Rain = 0
KEA1 130210Z 19014KT 35/03 A2994 RMK A01 T03530028  RH  013%=      5-min Rain = 0
KEA1 130211Z 19013KT 35/03 A2994 RMK A01 T03530029  RH  013%=      5-min Rain = 0
KEA1 130212Z 19014KT 35/03 A2994 RMK A01 T03520028  RH  013%=      5-min Rain = 0
KEA1 130213Z 19012KT 35/03 A2994 RMK A01 T03520028  RH  013%=      5-min Rain = 0
KEA1 130214Z 19015KT 35/03 A2994 RMK A01 T03530028  RH  013%=      5-min Rain = 0
KEA1 130215Z 20014KT 35/03 A2994 RMK A01 T03540027  RH  013%=      5-min Rain = 0
KEA1 130216Z 20015KT 35/03 A2994 RMK A01 T03540027  RH  013%=      5-min Rain = 0
KEA1 130217Z 22013KT 36/03 A2994 RMK A01 T03560028  RH  013%=      5-min Rain = 0
KEA1 130218Z 23011KT 36/05 A2995 RMK A01 T03570046  RH  015%=      5-min Rain = 0
KEA1 130219Z 23014G19KT 36/06 A2995 RMK A01 T03560061  RH  016%=      5-min Rain = 0
KEA1 130220Z 23012KT 35/06 A2996 RMK A01 T03540056  RH  016%=      5-min Rain = 0
KEA1 130221Z 25012KT 35/06 A2996 RMK A01 T03530062  RH  017%=      5-min Rain = 0
KEA1 130222Z 24014KT 35/05 A2996 RMK A01 T03510046  RH  015%=      5-min Rain = 0
KEA1 130223Z 24016KT 35/04 A2996 RMK A01 T03510037  RH  014%=      5-min Rain = 0
KEA1 130224Z 24014KT 35/04 A2996 RMK A01 T03500035  RH  014%=      5-min Rain = 0
KEA1 130225Z 24013KT 35/04 A2996 RMK A01 T03480036  RH  014%=      5-min Rain = 0
KEA1 130226Z 24011KT 35/04 A2996 RMK A01 T03480037  RH  014%=      5-min Rain = 0
KEA1 130227Z 24012KT 35/04 A2996 RMK A01 T03470039  RH  015%=      5-min Rain = 0
KEA1 130228Z 23010KT 35/05 A2996 RMK A01 T03460052  RH  016%=      5-min Rain = 0
KEA1 130229Z 24014KT 35/06 A2996 RMK A01 T03450060  RH  017%=      5-min Rain = 0
KEA1 130230Z 24012KT 35/05 A2996 RMK A01 T03450052  RH  016%=      5-min Rain = 0
KEA1 130231Z 24011KT 35/05 A2996 RMK A01 T03460047  RH  016%=      5-min Rain = 0
KEA1 130232Z 24011KT 35/05 A2996 RMK A01 T03460046  RH  015%=      5-min Rain = 0
KEA1 130233Z 24011KT 35/05 A2996 RMK A01 T03460046  RH  015%=      5-min Rain = 0
KEA1 130234Z 24011KT 35/05 A2996 RMK A01 T03460047  RH  016%=      5-min Rain = 0
KEA1 130235Z 25010KT 35/05 A2996 RMK A01 T03450048  RH  016%=      5-min Rain = 0
KEA1 130236Z 24011KT 35/05 A2996 RMK A01 T03450048  RH  016%=      5-min Rain = 0
KEA1 130237Z 24010KT 35/05 A2996 RMK A01 T03460049  RH  016%=      5-min Rain = 0
KEA1 130238Z 24009KT 35/05 A2996 RMK A01 T03460050  RH  016%=      5-min Rain = 0
KEA1 130239Z 24009KT 35/05 A2996 RMK A01 T03460052  RH  016%=      5-min Rain = 0
KEA1 130240Z 23008KT 35/05 A2996 RMK A01 T03460054  RH  016%=      5-min Rain = 0
KEA1 130241Z 23009KT 35/06 A2996 RMK A01 T03460057  RH  017%=      5-min Rain = 0
KEA1 130242Z 23009KT 35/06 A2996 RMK A01 T03450064  RH  017%=      5-min Rain = 0
KEA1 130243Z 23009KT 35/07 A2997 RMK A01 T03450067  RH  018%=      5-min Rain = 0
KEA1 130244Z 23009KT 35/08 A2997 RMK A01 T03450078  RH  019%=      5-min Rain = 0
KEA1 130245Z 23008KT 35/09 A2997 RMK A01 T03450087  RH  021%=      5-min Rain = 0
KEA1 130246Z 24006KT 35/09 A2997 RMK A01 T03450093  RH  021%=      5-min Rain = 0
KEA1 130247Z 22006KT 35/09 A2997 RMK A01 T03450091  RH  021%=      5-min Rain = 0
KEA1 130248Z 22006KT 34/10 A2997 RMK A01 T03440096  RH  022%=      5-min Rain = 0
KEA1 130249Z 23005KT 34/09 A2997 RMK A01 T03430094  RH  022%=      5-min Rain = 0
KEA1 130250Z 23005KT 34/09 A2997 RMK A01 T03430091  RH  021%=      5-min Rain = 0
KEA1 130251Z 24006KT 34/09 A2997 RMK A01 T03420087  RH  021%=      5-min Rain = 0
KEA1 130252Z 24006KT 34/09 A2997 RMK A01 T03410085  RH  021%=      5-min Rain = 0
KEA1 130253Z 24006KT 34/08 A2997 RMK A01 T03410079  RH  020%=      5-min Rain = 0
KEA1 130254Z 24006KT 34/08 A2997 RMK A01 T03410078  RH  020%=      5-min Rain = 0
KEA1 130255Z 24006KT 34/08 A2997 RMK A01 T03410078  RH  020%=      5-min Rain = 0
KEA1 130256Z 23005KT 34/08 A2997 RMK A01 T03400078  RH  020%=      5-min Rain = 0
KEA1 130257Z 23005KT 34/08 A2997 RMK A01 T03390078  RH  020%=      5-min Rain = 0
KEA1 130258Z 23006KT 34/08 A2997 RMK A01 T03390080  RH  020%=      5-min Rain = 0
KEA1 130259Z 21006KT 34/10 A2997 RMK A01 T03380097  RH  023%=      5-min Rain = 0
KEA1 130300Z 20008KT 34/13 A2997 RMK A01 T03350130  RH  029%=      5-min Rain = 0
KEA1 130301Z 20009KT 33/14 A2997 RMK A01 T03310138  RH  031%=      5-min Rain = 0
KEA1 130302Z 21009KT 33/13 A2997 RMK A01 T03300133  RH  030%=      5-min Rain = 0
KEA1 130303Z 21009KT 33/11 A2997 RMK A01 T03310111  RH  026%=      5-min Rain = 0
KEA1 130304Z 21009KT 33/12 A2997 RMK A01 T03330115  RH  026%=      5-min Rain = 0
KEA1 130305Z 22008KT 33/11 A2997 RMK A01 T03340113  RH  026%=      5-min Rain = 0
KEA1 130306Z 22008KT 34/11 A2997 RMK A01 T03360110  RH  025%=      5-min Rain = 0
KEA1 130307Z 22007KT 34/10 A2997 RMK A01 T03380104  RH  024%=      5-min Rain = 0
KEA1 130308Z 22006KT 34/10 A2997 RMK A01 T03390101  RH  023%=      5-min Rain = 0
KEA1 130309Z 22005KT 34/10 A2996 RMK A01 T03390101  RH  023%=      5-min Rain = 0
KEA1 130310Z 23005KT 34/10 A2996 RMK A01 T03390101  RH  023%=      5-min Rain = 0
KEA1 130311Z 22004KT 34/10 A2996 RMK A01 T03390102  RH  023%=      5-min Rain = 0
KEA1 130312Z 22003KT 34/10 A2996 RMK A01 T03390104  RH  024%=      5-min Rain = 0
KEA1 130313Z 21003KT 34/10 A2996 RMK A01 T03370104  RH  024%=      5-min Rain = 0
KEA1 130314Z 20003KT 34/11 A2996 RMK A01 T03350107  RH  025%=      5-min Rain = 0
KEA1 130315Z 20003KT 33/11 A2996 RMK A01 T03340106  RH  025%=      5-min Rain = 0
KEA1 130316Z 20005KT 33/11 A2996 RMK A01 T03340106  RH  025%=      5-min Rain = 0
KEA1 130317Z 19004KT 33/11 A2996 RMK A01 T03330105  RH  025%=      5-min Rain = 0
KEA1 130318Z 18005KT 33/10 A2996 RMK A01 T03320104  RH  025%=      5-min Rain = 0
KEA1 130319Z 17006KT 33/10 A2996 RMK A01 T03300098  RH  024%=      5-min Rain = 0
KEA1 130320Z 17006KT 33/09 A2996 RMK A01 T03280092  RH  023%=      5-min Rain = 0
KEA1 130321Z 16006KT 33/09 A2996 RMK A01 T03270087  RH  023%=      5-min Rain = 0
KEA1 130322Z 17006KT 33/09 A2996 RMK A01 T03270085  RH  022%=      5-min Rain = 0
KEA1 130323Z 18006KT 33/08 A2996 RMK A01 T03260084  RH  022%=      5-min Rain = 0
KEA1 130324Z 19005KT 33/08 A2996 RMK A01 T03250084  RH  023%=      5-min Rain = 0
KEA1 130325Z 18005KT 33/09 A2996 RMK A01 T03250085  RH  023%=      5-min Rain = 0
KEA1 130326Z 19005KT 32/08 A2997 RMK A01 T03230084  RH  023%=      5-min Rain = 0
KEA1 130327Z 19006KT 32/08 A2997 RMK A01 T03210084  RH  023%=      5-min Rain = 0
KEA1 130328Z 19007KT 32/08 A2997 RMK A01 T03190084  RH  023%=      5-min Rain = 0
KEA1 130329Z 19007KT 32/09 A2997 RMK A01 T03170085  RH  024%=      5-min Rain = 0
KEA1 130330Z 19007KT 32/09 A2997 RMK A01 T03170086  RH  024%=      5-min Rain = 0
KEA1 130331Z 19007KT 32/09 A2997 RMK A01 T03170086  RH  024%=      5-min Rain = 0
KEA1 130332Z 19008KT 32/09 A2997 RMK A01 T03170086  RH  024%=      5-min Rain = 0
KEA1 130333Z 19008KT 32/09 A2997 RMK A01 T03170087  RH  024%=      5-min Rain = 0
KEA1 130334Z 19008KT 32/09 A2997 RMK A01 T03170087  RH  024%=      5-min Rain = 0
KEA1 130335Z 19007KT 32/09 A2997 RMK A01 T03160087  RH  024%=      5-min Rain = 0
KEA1 130336Z 19007KT 32/09 A2997 RMK A01 T03160087  RH  024%=      5-min Rain = 0
KEA1 130337Z 19007KT 32/09 A2997 RMK A01 T03170088  RH  024%=      5-min Rain = 0
KEA1 130338Z 19007KT 32/09 A2997 RMK A01 T03160087  RH  024%=      5-min Rain = 0
KEA1 130339Z 19007KT 32/09 A2997 RMK A01 T03170088  RH  024%=      5-min Rain = 0
KEA1 130340Z 19007KT 32/09 A2997 RMK A01 T03170087  RH  024%=      5-min Rain = 0
KEA1 130341Z 20006KT 32/09 A2997 RMK A01 T03170088  RH  024%=      5-min Rain = 0
KEA1 130342Z 20007KT 32/09 A2997 RMK A01 T03160088  RH  024%=      5-min Rain = 0
KEA1 130343Z 20007KT 32/09 A2997 RMK A01 T03150088  RH  024%=      5-min Rain = 0
KEA1 130344Z 20008KT 32/09 A2997 RMK A01 T03150088  RH  024%=      5-min Rain = 0
KEA1 130345Z 20009KT 31/09 A2997 RMK A01 T03140088  RH  024%=      5-min Rain = 0
KEA1 130346Z 20009KT 32/09 A2997 RMK A01 T03160088  RH  024%=      5-min Rain = 0
KEA1 130347Z 20009KT 32/09 A2997 RMK A01 T03180089  RH  024%=      5-min Rain = 0
KEA1 130348Z 19009KT 32/09 A2997 RMK A01 T03180089  RH  024%=      5-min Rain = 0
KEA1 130349Z 19009KT 32/09 A2997 RMK A01 T03170089  RH  024%=      5-min Rain = 0
KEA1 130350Z 19008KT 32/09 A2997 RMK A01 T03170089  RH  024%=      5-min Rain = 0
KEA1 130351Z 18007KT 32/09 A2997 RMK A01 T03160090  RH  025%=      5-min Rain = 0
KEA1 130352Z 18007KT 32/09 A2997 RMK A01 T03150090  RH  025%=      5-min Rain = 0
KEA1 130353Z 18007KT 32/09 A2997 RMK A01 T03150090  RH  025%=      5-min Rain = 0
KEA1 130354Z 19006KT 31/09 A2998 RMK A01 T03140090  RH  025%=      5-min Rain = 0
KEA1 130355Z 19006KT 31/09 A2998 RMK A01 T03130090  RH  025%=      5-min Rain = 0
KEA1 130356Z 20007KT 31/09 A2998 RMK A01 T03120090  RH  025%=      5-min Rain = 0
KEA1 130357Z 20007KT 31/09 A2998 RMK A01 T03110090  RH  026%=      5-min Rain = 0
KEA1 130358Z 20006KT 31/09 A2998 RMK A01 T03100091  RH  026%=      5-min Rain = 0
KEA1 130359Z 20007KT 31/09 A2998 RMK A01 T03100092  RH  026%=      5-min Rain = 0
KEA1 130400Z 20007KT 31/09 A2998 RMK A01 T03100092  RH  026%=      5-min Rain = 0
KEA1 130401Z 20008KT 31/09 A2998 RMK A01 T03100092  RH  026%=      5-min Rain = 0
KEA1 130402Z 20009KT 31/09 A2998 RMK A01 T03110093  RH  026%=      5-min Rain = 0
KEA1 130403Z 20009KT 31/09 A2998 RMK A01 T03120093  RH  026%=      5-min Rain = 0
KEA1 130404Z 20010KT 31/09 A2998 RMK A01 T03120093  RH  026%=      5-min Rain = 0
KEA1 130405Z 20009KT 31/09 A2998 RMK A01 T03130094  RH  026%=      5-min Rain = 0
KEA1 130406Z 20008KT 32/09 A2998 RMK A01 T03150094  RH  026%=      5-min Rain = 0
KEA1 130407Z 20010KT 32/09 A2998 RMK A01 T03150094  RH  026%=      5-min Rain = 0
KEA1 130408Z 20010KT 32/10 A2998 RMK A01 T03160095  RH  026%=      5-min Rain = 0
KEA1 130409Z 20009KT 32/10 A2998 RMK A01 T03160095  RH  025%=      5-min Rain = 0
KEA1 130410Z 20009KT 32/10 A2998 RMK A01 T03160095  RH  026%=      5-min Rain = 0
KEA1 130411Z 20009KT 32/10 A2998 RMK A01 T03150095  RH  026%=      5-min Rain = 0
KEA1 130412Z 20010KT 32/10 A2998 RMK A01 T03160095  RH  026%=      5-min Rain = 0
KEA1 130413Z 20009KT 32/10 A2998 RMK A01 T03150095  RH  026%=      5-min Rain = 0
KEA1 130414Z 20010KT 32/10 A2999 RMK A01 T03150095  RH  026%=      5-min Rain = 0
KEA1 130415Z 21010KT 32/10 A2999 RMK A01 T03160095  RH  026%=      5-min Rain = 0
KEA1 130416Z 23013KT 32/10 A2999 RMK A01 T03170102  RH  027%=      5-min Rain = 0
KEA1 130417Z 22013KT 32/11 A2999 RMK A01 T03210113  RH  028%=      5-min Rain = 0
KEA1 130418Z 22011KT 32/12 A2999 RMK A01 T03240115  RH  028%=      5-min Rain = 0
KEA1 130419Z 22012KT 32/11 A2999 RMK A01 T03240114  RH  028%=      5-min Rain = 0
KEA1 130420Z 22010KT 32/12 A2999 RMK A01 T03240118  RH  029%=      5-min Rain = 0
KEA1 130421Z 22012KT 32/12 A2999 RMK A01 T03230118  RH  029%=      5-min Rain = 0
KEA1 130422Z 22011KT 32/12 A2999 RMK A01 T03230119  RH  029%=      5-min Rain = 0
KEA1 130423Z 22011KT 32/12 A2999 RMK A01 T03230118  RH  029%=      5-min Rain = 0
KEA1 130424Z 22012KT 32/11 A2999 RMK A01 T03230114  RH  028%=      5-min Rain = 0
KEA1 130425Z 22011KT 32/11 A2999 RMK A01 T03240114  RH  028%=      5-min Rain = 0
KEA1 130426Z 23010KT 32/11 A2999 RMK A01 T03240114  RH  028%=      5-min Rain = 0
KEA1 130427Z 22010KT 33/12 A2999 RMK A01 T03250117  RH  028%=      5-min Rain = 0
KEA1 130428Z 22011KT 33/12 A2999 RMK A01 T03250120  RH  029%=      5-min Rain = 0
KEA1 130429Z 23011KT 32/12 A2999 RMK A01 T03240120  RH  029%=      5-min Rain = 0
KEA1 130430Z 23012KT 32/12 A2999 RMK A01 T03240118  RH  028%=      5-min Rain = 0
KEA1 130431Z 22010KT 32/12 A2999 RMK A01 T03240115  RH  028%=      5-min Rain = 0
KEA1 130432Z 22010KT 32/12 A2999 RMK A01 T03240116  RH  028%=      5-min Rain = 0
KEA1 130433Z 21010KT 32/12 A2999 RMK A01 T03240115  RH  028%=      5-min Rain = 0
KEA1 130434Z 21009KT 33/11 A2999 RMK A01 T03270112  RH  027%=      5-min Rain = 0
KEA1 130435Z 21008KT 33/11 A2999 RMK A01 T03280113  RH  027%=      5-min Rain = 0
KEA1 130436Z 22007KT 33/12 A2999 RMK A01 T03280115  RH  027%=      5-min Rain = 0
KEA1 130437Z 20008KT 33/11 A2999 RMK A01 T03270106  RH  026%=      5-min Rain = 0
KEA1 130438Z 20008KT 32/10 A2999 RMK A01 T03240100  RH  025%=      5-min Rain = 0
KEA1 130439Z 20008KT 32/10 A2999 RMK A01 T03200099  RH  026%=      5-min Rain = 0
KEA1 130440Z 20008KT 32/10 A2999 RMK A01 T03180099  RH  026%=      5-min Rain = 0
KEA1 130441Z 20008KT 32/10 A2999 RMK A01 T03170098  RH  026%=      5-min Rain = 0
KEA1 130442Z 20007KT 32/10 A2999 RMK A01 T03150098  RH  026%=      5-min Rain = 0
KEA1 130443Z 20007KT 31/10 A2999 RMK A01 T03140098  RH  026%=      5-min Rain = 0
KEA1 130444Z 20007KT 31/10 A30 RMK A01 T03130098  RH  027%=      5-min Rain = 0
KEA1 130445Z 20007KT 31/10 A30 RMK A01 T03120099  RH  027%=      5-min Rain = 0
KEA1 130446Z 20007KT 31/10 A30 RMK A01 T03110099  RH  027%=      5-min Rain = 0
KEA1 130447Z 20007KT 31/10 A30 RMK A01 T03100099  RH  027%=      5-min Rain = 0
KEA1 130448Z 20007KT 31/10 A30 RMK A01 T03100099  RH  027%=      5-min Rain = 0
KEA1 130449Z 20007KT 31/10 A30 RMK A01 T03090099  RH  027%=      5-min Rain = 0
KEA1 130450Z 19008KT 31/10 A30 RMK A01 T03090099  RH  027%=      5-min Rain = 0
KEA1 130451Z 20009KT 31/10 A30 RMK A01 T03090099  RH  027%=      5-min Rain = 0
KEA1 130452Z 20008KT 31/10 A30 RMK A01 T03080098  RH  027%=      5-min Rain = 0
KEA1 130453Z 20007KT 31/10 A30 RMK A01 T03090099  RH  027%=      5-min Rain = 0
KEA1 130454Z 19007KT 31/10 A30 RMK A01 T03080100  RH  028%=      5-min Rain = 0
KEA1 130455Z 19007KT 31/10 A30 RMK A01 T03070100  RH  028%=      5-min Rain = 0
KEA1 130456Z 19007KT 31/10 A30 RMK A01 T03050100  RH  028%=      5-min Rain = 0
KEA1 130457Z 19007KT 30/10 A30 RMK A01 T03040101  RH  028%=      5-min Rain = 0
KEA1 130458Z 20007KT 30/10 A30 RMK A01 T03030101  RH  029%=      5-min Rain = 0
KEA1 130459Z 20007KT 30/10 A30 RMK A01 T03020101  RH  029%=      5-min Rain = 0

Page generated in 0.0719 seconds.